<?xml version="1.0" encoding="UTF-8" standalone="no" ?>
<gpx xmlns="http://www.topografix.com/GPX/1/1" xmlns:xsi="http://www.w3.org/2001/XMLSchema-instance" xsi:schemaLocation="http://www.topografix.com/GPX/1/1 http://www.topografix.com/GPX/1/1/gpx.xsd" version="1.1" creator="VisuGPX - https://www.visugpx.com">
  <metadata>
    <name>Pas de Pabro - Grotte de Pabro - Pas de la Charmate</name>
    <desc><![CDATA[Plateau de la Grande Cournouse, en face des falaises de Presle.
De Châtelus, on suit le balisage (points bleus) jusqu\'au départ du pas de Pabro:avant de le passer, on part à gauche (descente puis remontée) pour visiter la grotte de Pabro. Retour et grimpée du pas de Pabro.
Sur le plateau, suivre la trace gps jusqu\'au pas de la Charmate et retour à Châtelus.]]></desc>
  </metadata>
  <trk>
    <name><![CDATA[15-JUIN-13 16:40:47]]></name>
    <trkseg>
      <trkpt lat="45.05763" lon="5.37323">
        <ele>490.41</ele>
        <time>2013-06-15T08:55:20Z</time>
      </trkpt>
      <trkpt lat="45.0576" lon="5.37322">
        <ele>489.45</ele>
        <time>2013-06-15T08:55:21Z</time>
      </trkpt>
      <trkpt lat="45.0576" lon="5.37321">
        <ele>493.77</ele>
        <time>2013-06-15T08:55:24Z</time>
      </trkpt>
      <trkpt lat="45.05761" lon="5.37321">
        <ele>497.14</ele>
        <time>2013-06-15T08:55:26Z</time>
      </trkpt>
      <trkpt lat="45.05761" lon="5.3732">
        <ele>498.58</ele>
        <time>2013-06-15T08:55:29Z</time>
      </trkpt>
      <trkpt lat="45.05761" lon="5.3732">
        <ele>502.91</ele>
        <time>2013-06-15T08:55:30Z</time>
      </trkpt>
      <trkpt lat="45.05761" lon="5.3732">
        <ele>502.91</ele>
        <time>2013-06-15T08:55:31Z</time>
      </trkpt>
      <trkpt lat="45.05762" lon="5.37319">
        <ele>504.83</ele>
        <time>2013-06-15T08:55:34Z</time>
      </trkpt>
      <trkpt lat="45.05762" lon="5.37318">
        <ele>508.19</ele>
        <time>2013-06-15T08:55:36Z</time>
      </trkpt>
      <trkpt lat="45.05762" lon="5.37317">
        <ele>511.08</ele>
        <time>2013-06-15T08:55:40Z</time>
      </trkpt>
      <trkpt lat="45.05762" lon="5.37317">
        <ele>513</ele>
        <time>2013-06-15T08:55:42Z</time>
      </trkpt>
      <trkpt lat="45.05762" lon="5.37316">
        <ele>516.85</ele>
        <time>2013-06-15T08:55:45Z</time>
      </trkpt>
      <trkpt lat="45.05762" lon="5.37315">
        <ele>519.73</ele>
        <time>2013-06-15T08:55:49Z</time>
      </trkpt>
      <trkpt lat="45.05762" lon="5.37315">
        <ele>519.73</ele>
        <time>2013-06-15T08:55:50Z</time>
      </trkpt>
      <trkpt lat="45.05761" lon="5.37315">
        <ele>521.65</ele>
        <time>2013-06-15T08:55:53Z</time>
      </trkpt>
      <trkpt lat="45.05762" lon="5.37315">
        <ele>529.82</ele>
        <time>2013-06-15T08:55:59Z</time>
      </trkpt>
      <trkpt lat="45.05762" lon="5.37316">
        <ele>526.46</ele>
        <time>2013-06-15T08:56:00Z</time>
      </trkpt>
      <trkpt lat="45.05764" lon="5.37317">
        <ele>530.3</ele>
        <time>2013-06-15T08:56:08Z</time>
      </trkpt>
      <trkpt lat="45.05763" lon="5.37317">
        <ele>533.67</ele>
        <time>2013-06-15T08:56:26Z</time>
      </trkpt>
      <trkpt lat="45.05762" lon="5.3732">
        <ele>535.59</ele>
        <time>2013-06-15T08:56:46Z</time>
      </trkpt>
      <trkpt lat="45.05765" lon="5.37321">
        <ele>538.96</ele>
        <time>2013-06-15T08:57:01Z</time>
      </trkpt>
      <trkpt lat="45.05763" lon="5.3732">
        <ele>539.44</ele>
        <time>2013-06-15T08:57:25Z</time>
      </trkpt>
      <trkpt lat="45.05762" lon="5.37319">
        <ele>539.44</ele>
        <time>2013-06-15T08:57:44Z</time>
      </trkpt>
      <trkpt lat="45.05761" lon="5.37317">
        <ele>540.4</ele>
        <time>2013-06-15T08:58:03Z</time>
      </trkpt>
      <trkpt lat="45.05761" lon="5.37317">
        <ele>539.92</ele>
        <time>2013-06-15T08:58:25Z</time>
      </trkpt>
      <trkpt lat="45.05761" lon="5.37315">
        <ele>539.92</ele>
        <time>2013-06-15T08:58:55Z</time>
      </trkpt>
      <trkpt lat="45.0576" lon="5.37314">
        <ele>539.44</ele>
        <time>2013-06-15T08:59:29Z</time>
      </trkpt>
      <trkpt lat="45.05761" lon="5.37315">
        <ele>538.96</ele>
        <time>2013-06-15T08:59:52Z</time>
      </trkpt>
      <trkpt lat="45.05763" lon="5.37318">
        <ele>539.44</ele>
        <time>2013-06-15T09:00:15Z</time>
      </trkpt>
      <trkpt lat="45.05763" lon="5.37326">
        <ele>538.96</ele>
        <time>2013-06-15T09:00:33Z</time>
      </trkpt>
      <trkpt lat="45.05763" lon="5.37326">
        <ele>538.48</ele>
        <time>2013-06-15T09:00:57Z</time>
      </trkpt>
      <trkpt lat="45.05762" lon="5.37326">
        <ele>539.44</ele>
        <time>2013-06-15T09:01:11Z</time>
      </trkpt>
      <trkpt lat="45.05761" lon="5.37323">
        <ele>539.44</ele>
        <time>2013-06-15T09:01:20Z</time>
      </trkpt>
      <trkpt lat="45.05762" lon="5.3732">
        <ele>540.4</ele>
        <time>2013-06-15T09:01:30Z</time>
      </trkpt>
      <trkpt lat="45.05761" lon="5.3732">
        <ele>539.44</ele>
        <time>2013-06-15T09:01:40Z</time>
      </trkpt>
      <trkpt lat="45.0576" lon="5.37325">
        <ele>539.92</ele>
        <time>2013-06-15T09:01:55Z</time>
      </trkpt>
      <trkpt lat="45.0576" lon="5.37328">
        <ele>540.4</ele>
        <time>2013-06-15T09:02:17Z</time>
      </trkpt>
      <trkpt lat="45.0576" lon="5.37329">
        <ele>539.92</ele>
        <time>2013-06-15T09:02:22Z</time>
      </trkpt>
      <trkpt lat="45.05758" lon="5.37331">
        <ele>539.92</ele>
        <time>2013-06-15T09:02:24Z</time>
      </trkpt>
      <trkpt lat="45.05743" lon="5.37343">
        <ele>540.88</ele>
        <time>2013-06-15T09:02:40Z</time>
      </trkpt>
      <trkpt lat="45.05732" lon="5.37372">
        <ele>541.84</ele>
        <time>2013-06-15T09:02:57Z</time>
      </trkpt>
      <trkpt lat="45.05724" lon="5.37397">
        <ele>540.88</ele>
        <time>2013-06-15T09:03:11Z</time>
      </trkpt>
      <trkpt lat="45.05716" lon="5.37407">
        <ele>541.36</ele>
        <time>2013-06-15T09:03:18Z</time>
      </trkpt>
      <trkpt lat="45.05707" lon="5.37411">
        <ele>540.88</ele>
        <time>2013-06-15T09:03:24Z</time>
      </trkpt>
      <trkpt lat="45.05691" lon="5.37406">
        <ele>540.4</ele>
        <time>2013-06-15T09:03:35Z</time>
      </trkpt>
      <trkpt lat="45.05684" lon="5.374">
        <ele>540.88</ele>
        <time>2013-06-15T09:03:42Z</time>
      </trkpt>
      <trkpt lat="45.0568" lon="5.37403">
        <ele>542.32</ele>
        <time>2013-06-15T09:03:56Z</time>
      </trkpt>
      <trkpt lat="45.05685" lon="5.37408">
        <ele>543.28</ele>
        <time>2013-06-15T09:04:07Z</time>
      </trkpt>
      <trkpt lat="45.05685" lon="5.37405">
        <ele>543.28</ele>
        <time>2013-06-15T09:04:13Z</time>
      </trkpt>
      <trkpt lat="45.0569" lon="5.37412">
        <ele>543.76</ele>
        <time>2013-06-15T09:04:19Z</time>
      </trkpt>
      <trkpt lat="45.05694" lon="5.37415">
        <ele>544.72</ele>
        <time>2013-06-15T09:04:22Z</time>
      </trkpt>
      <trkpt lat="45.05706" lon="5.37425">
        <ele>547.13</ele>
        <time>2013-06-15T09:04:35Z</time>
      </trkpt>
      <trkpt lat="45.05712" lon="5.3744">
        <ele>549.05</ele>
        <time>2013-06-15T09:04:48Z</time>
      </trkpt>
      <trkpt lat="45.05709" lon="5.37441">
        <ele>550.01</ele>
        <time>2013-06-15T09:04:58Z</time>
      </trkpt>
      <trkpt lat="45.05707" lon="5.37443">
        <ele>550.49</ele>
        <time>2013-06-15T09:05:11Z</time>
      </trkpt>
      <trkpt lat="45.05701" lon="5.37449">
        <ele>551.45</ele>
        <time>2013-06-15T09:05:23Z</time>
      </trkpt>
      <trkpt lat="45.05701" lon="5.37461">
        <ele>555.3</ele>
        <time>2013-06-15T09:05:37Z</time>
      </trkpt>
      <trkpt lat="45.05703" lon="5.3747">
        <ele>556.26</ele>
        <time>2013-06-15T09:05:50Z</time>
      </trkpt>
      <trkpt lat="45.05699" lon="5.37477">
        <ele>559.62</ele>
        <time>2013-06-15T09:06:02Z</time>
      </trkpt>
      <trkpt lat="45.05696" lon="5.37489">
        <ele>562.99</ele>
        <time>2013-06-15T09:06:18Z</time>
      </trkpt>
      <trkpt lat="45.05693" lon="5.37499">
        <ele>565.87</ele>
        <time>2013-06-15T09:06:35Z</time>
      </trkpt>
      <trkpt lat="45.05691" lon="5.37507">
        <ele>569.24</ele>
        <time>2013-06-15T09:06:47Z</time>
      </trkpt>
      <trkpt lat="45.05688" lon="5.37517">
        <ele>572.12</ele>
        <time>2013-06-15T09:07:02Z</time>
      </trkpt>
      <trkpt lat="45.05684" lon="5.37525">
        <ele>575.49</ele>
        <time>2013-06-15T09:07:14Z</time>
      </trkpt>
      <trkpt lat="45.05684" lon="5.37523">
        <ele>576.93</ele>
        <time>2013-06-15T09:07:33Z</time>
      </trkpt>
      <trkpt lat="45.05679" lon="5.37516">
        <ele>576.93</ele>
        <time>2013-06-15T09:07:54Z</time>
      </trkpt>
      <trkpt lat="45.05667" lon="5.37518">
        <ele>579.81</ele>
        <time>2013-06-15T09:08:14Z</time>
      </trkpt>
      <trkpt lat="45.05659" lon="5.37515">
        <ele>583.18</ele>
        <time>2013-06-15T09:08:33Z</time>
      </trkpt>
      <trkpt lat="45.0565" lon="5.37514">
        <ele>585.1</ele>
        <time>2013-06-15T09:08:51Z</time>
      </trkpt>
      <trkpt lat="45.0564" lon="5.37511">
        <ele>587.98</ele>
        <time>2013-06-15T09:09:06Z</time>
      </trkpt>
      <trkpt lat="45.05629" lon="5.37505">
        <ele>590.87</ele>
        <time>2013-06-15T09:09:23Z</time>
      </trkpt>
      <trkpt lat="45.05627" lon="5.37501">
        <ele>591.83</ele>
        <time>2013-06-15T09:09:44Z</time>
      </trkpt>
      <trkpt lat="45.05627" lon="5.37499">
        <ele>592.31</ele>
        <time>2013-06-15T09:10:08Z</time>
      </trkpt>
      <trkpt lat="45.05623" lon="5.37494">
        <ele>592.31</ele>
        <time>2013-06-15T09:10:33Z</time>
      </trkpt>
      <trkpt lat="45.05626" lon="5.37494">
        <ele>591.83</ele>
        <time>2013-06-15T09:11:03Z</time>
      </trkpt>
      <trkpt lat="45.05615" lon="5.37499">
        <ele>595.19</ele>
        <time>2013-06-15T09:11:19Z</time>
      </trkpt>
      <trkpt lat="45.05606" lon="5.375">
        <ele>598.56</ele>
        <time>2013-06-15T09:11:36Z</time>
      </trkpt>
      <trkpt lat="45.05593" lon="5.37505">
        <ele>601.44</ele>
        <time>2013-06-15T09:11:53Z</time>
      </trkpt>
      <trkpt lat="45.05585" lon="5.3751">
        <ele>602.88</ele>
        <time>2013-06-15T09:12:12Z</time>
      </trkpt>
      <trkpt lat="45.05591" lon="5.3751">
        <ele>604.33</ele>
        <time>2013-06-15T09:12:26Z</time>
      </trkpt>
      <trkpt lat="45.05599" lon="5.37524">
        <ele>607.69</ele>
        <time>2013-06-15T09:12:43Z</time>
      </trkpt>
      <trkpt lat="45.05602" lon="5.37537">
        <ele>610.57</ele>
        <time>2013-06-15T09:12:58Z</time>
      </trkpt>
      <trkpt lat="45.05602" lon="5.3755">
        <ele>613.94</ele>
        <time>2013-06-15T09:13:13Z</time>
      </trkpt>
      <trkpt lat="45.05602" lon="5.37563">
        <ele>617.3</ele>
        <time>2013-06-15T09:13:33Z</time>
      </trkpt>
      <trkpt lat="45.05605" lon="5.37576">
        <ele>619.71</ele>
        <time>2013-06-15T09:13:49Z</time>
      </trkpt>
      <trkpt lat="45.05603" lon="5.37583">
        <ele>621.63</ele>
        <time>2013-06-15T09:14:04Z</time>
      </trkpt>
      <trkpt lat="45.05602" lon="5.37593">
        <ele>624.99</ele>
        <time>2013-06-15T09:14:19Z</time>
      </trkpt>
      <trkpt lat="45.05606" lon="5.37601">
        <ele>627.4</ele>
        <time>2013-06-15T09:14:33Z</time>
      </trkpt>
      <trkpt lat="45.05605" lon="5.37612">
        <ele>630.28</ele>
        <time>2013-06-15T09:14:53Z</time>
      </trkpt>
      <trkpt lat="45.05602" lon="5.37619">
        <ele>633.17</ele>
        <time>2013-06-15T09:15:08Z</time>
      </trkpt>
      <trkpt lat="45.05602" lon="5.37625">
        <ele>635.09</ele>
        <time>2013-06-15T09:15:18Z</time>
      </trkpt>
      <trkpt lat="45.05602" lon="5.37628">
        <ele>637.49</ele>
        <time>2013-06-15T09:15:32Z</time>
      </trkpt>
      <trkpt lat="45.05603" lon="5.37634">
        <ele>638.93</ele>
        <time>2013-06-15T09:15:47Z</time>
      </trkpt>
      <trkpt lat="45.05602" lon="5.37639">
        <ele>640.86</ele>
        <time>2013-06-15T09:16:04Z</time>
      </trkpt>
      <trkpt lat="45.05601" lon="5.37635">
        <ele>640.86</ele>
        <time>2013-06-15T09:16:37Z</time>
      </trkpt>
      <trkpt lat="45.05597" lon="5.37631">
        <ele>640.86</ele>
        <time>2013-06-15T09:17:06Z</time>
      </trkpt>
      <trkpt lat="45.05593" lon="5.37633">
        <ele>640.38</ele>
        <time>2013-06-15T09:17:39Z</time>
      </trkpt>
      <trkpt lat="45.05593" lon="5.37638">
        <ele>640.86</ele>
        <time>2013-06-15T09:18:14Z</time>
      </trkpt>
      <trkpt lat="45.05593" lon="5.37633">
        <ele>640.86</ele>
        <time>2013-06-15T09:18:53Z</time>
      </trkpt>
      <trkpt lat="45.05598" lon="5.37632">
        <ele>640.86</ele>
        <time>2013-06-15T09:19:14Z</time>
      </trkpt>
      <trkpt lat="45.05604" lon="5.37648">
        <ele>643.26</ele>
        <time>2013-06-15T09:19:34Z</time>
      </trkpt>
      <trkpt lat="45.05604" lon="5.37657">
        <ele>646.62</ele>
        <time>2013-06-15T09:19:48Z</time>
      </trkpt>
      <trkpt lat="45.05605" lon="5.37664">
        <ele>648.55</ele>
        <time>2013-06-15T09:19:59Z</time>
      </trkpt>
      <trkpt lat="45.05606" lon="5.37663">
        <ele>649.51</ele>
        <time>2013-06-15T09:20:11Z</time>
      </trkpt>
      <trkpt lat="45.05603" lon="5.37675">
        <ele>652.87</ele>
        <time>2013-06-15T09:20:25Z</time>
      </trkpt>
      <trkpt lat="45.05606" lon="5.37686">
        <ele>655.76</ele>
        <time>2013-06-15T09:20:39Z</time>
      </trkpt>
      <trkpt lat="45.05608" lon="5.37699">
        <ele>658.16</ele>
        <time>2013-06-15T09:21:00Z</time>
      </trkpt>
      <trkpt lat="45.05611" lon="5.37713">
        <ele>661.52</ele>
        <time>2013-06-15T09:21:14Z</time>
      </trkpt>
      <trkpt lat="45.05614" lon="5.37724">
        <ele>663.93</ele>
        <time>2013-06-15T09:21:28Z</time>
      </trkpt>
      <trkpt lat="45.05619" lon="5.37737">
        <ele>666.33</ele>
        <time>2013-06-15T09:21:45Z</time>
      </trkpt>
      <trkpt lat="45.0562" lon="5.37742">
        <ele>667.29</ele>
        <time>2013-06-15T09:22:01Z</time>
      </trkpt>
      <trkpt lat="45.05621" lon="5.37748">
        <ele>668.25</ele>
        <time>2013-06-15T09:22:21Z</time>
      </trkpt>
      <trkpt lat="45.05619" lon="5.3776">
        <ele>671.62</ele>
        <time>2013-06-15T09:22:37Z</time>
      </trkpt>
      <trkpt lat="45.0562" lon="5.37769">
        <ele>674.5</ele>
        <time>2013-06-15T09:22:53Z</time>
      </trkpt>
      <trkpt lat="45.05623" lon="5.37782">
        <ele>676.91</ele>
        <time>2013-06-15T09:23:09Z</time>
      </trkpt>
      <trkpt lat="45.05625" lon="5.37792">
        <ele>678.83</ele>
        <time>2013-06-15T09:23:22Z</time>
      </trkpt>
      <trkpt lat="45.05627" lon="5.37793">
        <ele>679.79</ele>
        <time>2013-06-15T09:23:38Z</time>
      </trkpt>
      <trkpt lat="45.05628" lon="5.37802">
        <ele>682.19</ele>
        <time>2013-06-15T09:23:56Z</time>
      </trkpt>
      <trkpt lat="45.05628" lon="5.37809">
        <ele>684.12</ele>
        <time>2013-06-15T09:24:11Z</time>
      </trkpt>
      <trkpt lat="45.05632" lon="5.37818">
        <ele>686.52</ele>
        <time>2013-06-15T09:24:23Z</time>
      </trkpt>
      <trkpt lat="45.0564" lon="5.37831">
        <ele>689.4</ele>
        <time>2013-06-15T09:24:39Z</time>
      </trkpt>
      <trkpt lat="45.05643" lon="5.37839">
        <ele>691.33</ele>
        <time>2013-06-15T09:24:52Z</time>
      </trkpt>
      <trkpt lat="45.05646" lon="5.37849">
        <ele>694.21</ele>
        <time>2013-06-15T09:25:08Z</time>
      </trkpt>
      <trkpt lat="45.05648" lon="5.3786">
        <ele>697.09</ele>
        <time>2013-06-15T09:25:26Z</time>
      </trkpt>
      <trkpt lat="45.05652" lon="5.37866">
        <ele>699.02</ele>
        <time>2013-06-15T09:25:42Z</time>
      </trkpt>
      <trkpt lat="45.05656" lon="5.37873">
        <ele>701.42</ele>
        <time>2013-06-15T09:25:59Z</time>
      </trkpt>
      <trkpt lat="45.05668" lon="5.3788">
        <ele>703.82</ele>
        <time>2013-06-15T09:26:14Z</time>
      </trkpt>
      <trkpt lat="45.05683" lon="5.3788">
        <ele>706.71</ele>
        <time>2013-06-15T09:26:35Z</time>
      </trkpt>
      <trkpt lat="45.05686" lon="5.37884">
        <ele>709.11</ele>
        <time>2013-06-15T09:26:51Z</time>
      </trkpt>
      <trkpt lat="45.05694" lon="5.37886">
        <ele>712.47</ele>
        <time>2013-06-15T09:27:06Z</time>
      </trkpt>
      <trkpt lat="45.05704" lon="5.37887">
        <ele>715.84</ele>
        <time>2013-06-15T09:27:25Z</time>
      </trkpt>
      <trkpt lat="45.05713" lon="5.3789">
        <ele>718.24</ele>
        <time>2013-06-15T09:27:42Z</time>
      </trkpt>
      <trkpt lat="45.0572" lon="5.37887">
        <ele>721.61</ele>
        <time>2013-06-15T09:28:00Z</time>
      </trkpt>
      <trkpt lat="45.05729" lon="5.37888">
        <ele>724.49</ele>
        <time>2013-06-15T09:28:16Z</time>
      </trkpt>
      <trkpt lat="45.05733" lon="5.37894">
        <ele>727.86</ele>
        <time>2013-06-15T09:28:31Z</time>
      </trkpt>
      <trkpt lat="45.05733" lon="5.37899">
        <ele>727.86</ele>
        <time>2013-06-15T09:28:40Z</time>
      </trkpt>
      <trkpt lat="45.05734" lon="5.37896">
        <ele>726.41</ele>
        <time>2013-06-15T09:28:51Z</time>
      </trkpt>
      <trkpt lat="45.05733" lon="5.37896">
        <ele>726.41</ele>
        <time>2013-06-15T09:29:12Z</time>
      </trkpt>
      <trkpt lat="45.05732" lon="5.37893">
        <ele>726.41</ele>
        <time>2013-06-15T09:29:43Z</time>
      </trkpt>
      <trkpt lat="45.05734" lon="5.37891">
        <ele>726.89</ele>
        <time>2013-06-15T09:30:15Z</time>
      </trkpt>
      <trkpt lat="45.05738" lon="5.37891">
        <ele>726.89</ele>
        <time>2013-06-15T09:30:36Z</time>
      </trkpt>
      <trkpt lat="45.05734" lon="5.37893">
        <ele>727.37</ele>
        <time>2013-06-15T09:31:11Z</time>
      </trkpt>
      <trkpt lat="45.05732" lon="5.3789">
        <ele>726.89</ele>
        <time>2013-06-15T09:31:42Z</time>
      </trkpt>
      <trkpt lat="45.05736" lon="5.37893">
        <ele>727.37</ele>
        <time>2013-06-15T09:32:21Z</time>
      </trkpt>
      <trkpt lat="45.05736" lon="5.37891">
        <ele>727.37</ele>
        <time>2013-06-15T09:33:01Z</time>
      </trkpt>
      <trkpt lat="45.05734" lon="5.3789">
        <ele>727.86</ele>
        <time>2013-06-15T09:33:37Z</time>
      </trkpt>
      <trkpt lat="45.05733" lon="5.37887">
        <ele>729.3</ele>
        <time>2013-06-15T09:34:05Z</time>
      </trkpt>
      <trkpt lat="45.05733" lon="5.37888">
        <ele>729.78</ele>
        <time>2013-06-15T09:34:22Z</time>
      </trkpt>
      <trkpt lat="45.05733" lon="5.37888">
        <ele>729.78</ele>
        <time>2013-06-15T09:34:48Z</time>
      </trkpt>
      <trkpt lat="45.05726" lon="5.37904">
        <ele>731.22</ele>
        <time>2013-06-15T09:35:04Z</time>
      </trkpt>
      <trkpt lat="45.05723" lon="5.37906">
        <ele>731.7</ele>
        <time>2013-06-15T09:35:18Z</time>
      </trkpt>
      <trkpt lat="45.05715" lon="5.37917">
        <ele>733.62</ele>
        <time>2013-06-15T09:35:35Z</time>
      </trkpt>
      <trkpt lat="45.05706" lon="5.37931">
        <ele>735.55</ele>
        <time>2013-06-15T09:35:50Z</time>
      </trkpt>
      <trkpt lat="45.05697" lon="5.37942">
        <ele>738.43</ele>
        <time>2013-06-15T09:36:08Z</time>
      </trkpt>
      <trkpt lat="45.05691" lon="5.37952">
        <ele>740.83</ele>
        <time>2013-06-15T09:36:22Z</time>
      </trkpt>
      <trkpt lat="45.05684" lon="5.37963">
        <ele>744.2</ele>
        <time>2013-06-15T09:36:38Z</time>
      </trkpt>
      <trkpt lat="45.05677" lon="5.37973">
        <ele>746.12</ele>
        <time>2013-06-15T09:36:54Z</time>
      </trkpt>
      <trkpt lat="45.05674" lon="5.37975">
        <ele>747.56</ele>
        <time>2013-06-15T09:36:57Z</time>
      </trkpt>
      <trkpt lat="45.05671" lon="5.37982">
        <ele>748.52</ele>
        <time>2013-06-15T09:37:16Z</time>
      </trkpt>
      <trkpt lat="45.05671" lon="5.37991">
        <ele>751.89</ele>
        <time>2013-06-15T09:37:32Z</time>
      </trkpt>
      <trkpt lat="45.05667" lon="5.38009">
        <ele>754.77</ele>
        <time>2013-06-15T09:37:49Z</time>
      </trkpt>
      <trkpt lat="45.05665" lon="5.38023">
        <ele>757.66</ele>
        <time>2013-06-15T09:38:04Z</time>
      </trkpt>
      <trkpt lat="45.05665" lon="5.38031">
        <ele>760.54</ele>
        <time>2013-06-15T09:38:20Z</time>
      </trkpt>
      <trkpt lat="45.05661" lon="5.38036">
        <ele>762.46</ele>
        <time>2013-06-15T09:38:34Z</time>
      </trkpt>
      <trkpt lat="45.05663" lon="5.38049">
        <ele>765.83</ele>
        <time>2013-06-15T09:38:50Z</time>
      </trkpt>
      <trkpt lat="45.0566" lon="5.38058">
        <ele>768.71</ele>
        <time>2013-06-15T09:39:04Z</time>
      </trkpt>
      <trkpt lat="45.0566" lon="5.38069">
        <ele>772.08</ele>
        <time>2013-06-15T09:39:21Z</time>
      </trkpt>
      <trkpt lat="45.0566" lon="5.38079">
        <ele>773.04</ele>
        <time>2013-06-15T09:39:39Z</time>
      </trkpt>
      <trkpt lat="45.05674" lon="5.38078">
        <ele>773.52</ele>
        <time>2013-06-15T09:40:12Z</time>
      </trkpt>
      <trkpt lat="45.05665" lon="5.38088">
        <ele>776.4</ele>
        <time>2013-06-15T09:40:34Z</time>
      </trkpt>
      <trkpt lat="45.05668" lon="5.381">
        <ele>779.77</ele>
        <time>2013-06-15T09:40:50Z</time>
      </trkpt>
      <trkpt lat="45.05673" lon="5.38114">
        <ele>782.65</ele>
        <time>2013-06-15T09:41:09Z</time>
      </trkpt>
      <trkpt lat="45.05671" lon="5.38131">
        <ele>785.53</ele>
        <time>2013-06-15T09:41:26Z</time>
      </trkpt>
      <trkpt lat="45.05671" lon="5.38138">
        <ele>787.46</ele>
        <time>2013-06-15T09:41:40Z</time>
      </trkpt>
      <trkpt lat="45.05674" lon="5.38154">
        <ele>788.9</ele>
        <time>2013-06-15T09:41:55Z</time>
      </trkpt>
      <trkpt lat="45.05674" lon="5.3817">
        <ele>790.82</ele>
        <time>2013-06-15T09:42:15Z</time>
      </trkpt>
      <trkpt lat="45.05672" lon="5.38185">
        <ele>793.71</ele>
        <time>2013-06-15T09:42:36Z</time>
      </trkpt>
      <trkpt lat="45.05671" lon="5.38194">
        <ele>796.11</ele>
        <time>2013-06-15T09:42:50Z</time>
      </trkpt>
      <trkpt lat="45.05668" lon="5.38208">
        <ele>798.99</ele>
        <time>2013-06-15T09:43:06Z</time>
      </trkpt>
      <trkpt lat="45.05667" lon="5.38213">
        <ele>801.88</ele>
        <time>2013-06-15T09:43:18Z</time>
      </trkpt>
      <trkpt lat="45.05668" lon="5.38228">
        <ele>804.28</ele>
        <time>2013-06-15T09:43:36Z</time>
      </trkpt>
      <trkpt lat="45.05666" lon="5.38242">
        <ele>806.2</ele>
        <time>2013-06-15T09:43:51Z</time>
      </trkpt>
      <trkpt lat="45.05663" lon="5.3825">
        <ele>808.13</ele>
        <time>2013-06-15T09:44:09Z</time>
      </trkpt>
      <trkpt lat="45.05662" lon="5.38258">
        <ele>810.05</ele>
        <time>2013-06-15T09:44:18Z</time>
      </trkpt>
      <trkpt lat="45.05658" lon="5.38272">
        <ele>812.45</ele>
        <time>2013-06-15T09:44:36Z</time>
      </trkpt>
      <trkpt lat="45.05658" lon="5.38285">
        <ele>812.45</ele>
        <time>2013-06-15T09:44:50Z</time>
      </trkpt>
      <trkpt lat="45.05654" lon="5.38296">
        <ele>815.82</ele>
        <time>2013-06-15T09:45:08Z</time>
      </trkpt>
      <trkpt lat="45.05654" lon="5.38306">
        <ele>817.74</ele>
        <time>2013-06-15T09:45:23Z</time>
      </trkpt>
      <trkpt lat="45.05652" lon="5.38314">
        <ele>819.66</ele>
        <time>2013-06-15T09:45:37Z</time>
      </trkpt>
      <trkpt lat="45.05651" lon="5.38321">
        <ele>821.58</ele>
        <time>2013-06-15T09:45:57Z</time>
      </trkpt>
      <trkpt lat="45.05651" lon="5.3833">
        <ele>823.99</ele>
        <time>2013-06-15T09:46:12Z</time>
      </trkpt>
      <trkpt lat="45.05649" lon="5.38335">
        <ele>825.91</ele>
        <time>2013-06-15T09:46:20Z</time>
      </trkpt>
      <trkpt lat="45.05647" lon="5.38345">
        <ele>829.27</ele>
        <time>2013-06-15T09:46:38Z</time>
      </trkpt>
      <trkpt lat="45.05645" lon="5.38351">
        <ele>829.76</ele>
        <time>2013-06-15T09:46:55Z</time>
      </trkpt>
      <trkpt lat="45.05649" lon="5.38352">
        <ele>828.79</ele>
        <time>2013-06-15T09:47:12Z</time>
      </trkpt>
      <trkpt lat="45.05648" lon="5.38359">
        <ele>828.79</ele>
        <time>2013-06-15T09:47:33Z</time>
      </trkpt>
      <trkpt lat="45.05657" lon="5.38355">
        <ele>826.87</ele>
        <time>2013-06-15T09:47:47Z</time>
      </trkpt>
      <trkpt lat="45.05661" lon="5.38352">
        <ele>826.87</ele>
        <time>2013-06-15T09:47:57Z</time>
      </trkpt>
      <trkpt lat="45.05656" lon="5.38358">
        <ele>826.87</ele>
        <time>2013-06-15T09:48:17Z</time>
      </trkpt>
      <trkpt lat="45.05658" lon="5.38362">
        <ele>826.39</ele>
        <time>2013-06-15T09:48:35Z</time>
      </trkpt>
      <trkpt lat="45.0566" lon="5.38353">
        <ele>826.39</ele>
        <time>2013-06-15T09:48:53Z</time>
      </trkpt>
      <trkpt lat="45.05662" lon="5.38359">
        <ele>826.39</ele>
        <time>2013-06-15T09:49:22Z</time>
      </trkpt>
      <trkpt lat="45.05656" lon="5.38361">
        <ele>826.39</ele>
        <time>2013-06-15T09:49:47Z</time>
      </trkpt>
      <trkpt lat="45.05659" lon="5.3836">
        <ele>826.87</ele>
        <time>2013-06-15T09:50:10Z</time>
      </trkpt>
      <trkpt lat="45.05659" lon="5.38357">
        <ele>826.39</ele>
        <time>2013-06-15T09:50:33Z</time>
      </trkpt>
      <trkpt lat="45.05654" lon="5.38357">
        <ele>827.35</ele>
        <time>2013-06-15T09:50:49Z</time>
      </trkpt>
      <trkpt lat="45.05653" lon="5.38365">
        <ele>829.76</ele>
        <time>2013-06-15T09:51:03Z</time>
      </trkpt>
      <trkpt lat="45.05653" lon="5.38374">
        <ele>832.64</ele>
        <time>2013-06-15T09:51:17Z</time>
      </trkpt>
      <trkpt lat="45.05653" lon="5.3839">
        <ele>834.56</ele>
        <time>2013-06-15T09:51:35Z</time>
      </trkpt>
      <trkpt lat="45.05647" lon="5.38405">
        <ele>837.45</ele>
        <time>2013-06-15T09:51:53Z</time>
      </trkpt>
      <trkpt lat="45.05651" lon="5.38425">
        <ele>840.81</ele>
        <time>2013-06-15T09:52:14Z</time>
      </trkpt>
      <trkpt lat="45.05649" lon="5.38441">
        <ele>842.73</ele>
        <time>2013-06-15T09:52:33Z</time>
      </trkpt>
      <trkpt lat="45.05649" lon="5.38448">
        <ele>845.62</ele>
        <time>2013-06-15T09:52:54Z</time>
      </trkpt>
      <trkpt lat="45.05656" lon="5.38458">
        <ele>847.06</ele>
        <time>2013-06-15T09:53:18Z</time>
      </trkpt>
      <trkpt lat="45.05659" lon="5.38467">
        <ele>849.94</ele>
        <time>2013-06-15T09:53:36Z</time>
      </trkpt>
      <trkpt lat="45.05656" lon="5.38473">
        <ele>852.83</ele>
        <time>2013-06-15T09:53:49Z</time>
      </trkpt>
      <trkpt lat="45.05659" lon="5.38482">
        <ele>853.31</ele>
        <time>2013-06-15T09:54:07Z</time>
      </trkpt>
      <trkpt lat="45.05661" lon="5.38482">
        <ele>854.27</ele>
        <time>2013-06-15T09:54:25Z</time>
      </trkpt>
      <trkpt lat="45.05664" lon="5.38486">
        <ele>852.35</ele>
        <time>2013-06-15T09:54:42Z</time>
      </trkpt>
      <trkpt lat="45.0567" lon="5.38502">
        <ele>850.9</ele>
        <time>2013-06-15T09:55:02Z</time>
      </trkpt>
      <trkpt lat="45.05675" lon="5.3851">
        <ele>848.5</ele>
        <time>2013-06-15T09:55:21Z</time>
      </trkpt>
      <trkpt lat="45.05682" lon="5.38523">
        <ele>845.62</ele>
        <time>2013-06-15T09:55:42Z</time>
      </trkpt>
      <trkpt lat="45.05689" lon="5.38531">
        <ele>845.14</ele>
        <time>2013-06-15T09:55:58Z</time>
      </trkpt>
      <trkpt lat="45.0569" lon="5.38541">
        <ele>842.25</ele>
        <time>2013-06-15T09:56:12Z</time>
      </trkpt>
      <trkpt lat="45.05695" lon="5.38551">
        <ele>839.85</ele>
        <time>2013-06-15T09:56:32Z</time>
      </trkpt>
      <trkpt lat="45.05694" lon="5.38549">
        <ele>840.33</ele>
        <time>2013-06-15T09:56:52Z</time>
      </trkpt>
      <trkpt lat="45.05695" lon="5.38554">
        <ele>842.73</ele>
        <time>2013-06-15T09:57:14Z</time>
      </trkpt>
      <trkpt lat="45.05692" lon="5.38563">
        <ele>846.1</ele>
        <time>2013-06-15T09:57:28Z</time>
      </trkpt>
      <trkpt lat="45.0569" lon="5.38565">
        <ele>849.46</ele>
        <time>2013-06-15T09:57:44Z</time>
      </trkpt>
      <trkpt lat="45.0569" lon="5.38578">
        <ele>852.83</ele>
        <time>2013-06-15T09:57:58Z</time>
      </trkpt>
      <trkpt lat="45.0569" lon="5.38588">
        <ele>855.71</ele>
        <time>2013-06-15T09:58:16Z</time>
      </trkpt>
      <trkpt lat="45.0569" lon="5.386">
        <ele>859.08</ele>
        <time>2013-06-15T09:58:37Z</time>
      </trkpt>
      <trkpt lat="45.05692" lon="5.38605">
        <ele>861</ele>
        <time>2013-06-15T09:58:49Z</time>
      </trkpt>
      <trkpt lat="45.05694" lon="5.38608">
        <ele>862.92</ele>
        <time>2013-06-15T09:59:13Z</time>
      </trkpt>
      <trkpt lat="45.05694" lon="5.38611">
        <ele>866.29</ele>
        <time>2013-06-15T09:59:36Z</time>
      </trkpt>
      <trkpt lat="45.05695" lon="5.38616">
        <ele>869.17</ele>
        <time>2013-06-15T09:59:51Z</time>
      </trkpt>
      <trkpt lat="45.05696" lon="5.38628">
        <ele>872.53</ele>
        <time>2013-06-15T10:00:09Z</time>
      </trkpt>
      <trkpt lat="45.05693" lon="5.38635">
        <ele>872.05</ele>
        <time>2013-06-15T10:00:32Z</time>
      </trkpt>
      <trkpt lat="45.05696" lon="5.38644">
        <ele>872.05</ele>
        <time>2013-06-15T10:00:56Z</time>
      </trkpt>
      <trkpt lat="45.05698" lon="5.38654">
        <ele>875.42</ele>
        <time>2013-06-15T10:01:15Z</time>
      </trkpt>
      <trkpt lat="45.05693" lon="5.38661">
        <ele>878.78</ele>
        <time>2013-06-15T10:01:32Z</time>
      </trkpt>
      <trkpt lat="45.05695" lon="5.38672">
        <ele>881.67</ele>
        <time>2013-06-15T10:01:48Z</time>
      </trkpt>
      <trkpt lat="45.05694" lon="5.3868">
        <ele>885.03</ele>
        <time>2013-06-15T10:02:02Z</time>
      </trkpt>
      <trkpt lat="45.05695" lon="5.38689">
        <ele>888.4</ele>
        <time>2013-06-15T10:02:17Z</time>
      </trkpt>
      <trkpt lat="45.05694" lon="5.38662">
        <ele>887.91</ele>
        <time>2013-06-15T10:50:26Z</time>
      </trkpt>
      <trkpt lat="45.05695" lon="5.38657">
        <ele>885.03</ele>
        <time>2013-06-15T10:50:41Z</time>
      </trkpt>
      <trkpt lat="45.05699" lon="5.38657">
        <ele>882.63</ele>
        <time>2013-06-15T10:50:56Z</time>
      </trkpt>
      <trkpt lat="45.05702" lon="5.38652">
        <ele>880.71</ele>
        <time>2013-06-15T10:51:02Z</time>
      </trkpt>
      <trkpt lat="45.05702" lon="5.38651">
        <ele>880.71</ele>
        <time>2013-06-15T10:51:04Z</time>
      </trkpt>
      <trkpt lat="45.05702" lon="5.38645">
        <ele>877.34</ele>
        <time>2013-06-15T10:51:13Z</time>
      </trkpt>
      <trkpt lat="45.05705" lon="5.38641">
        <ele>873.98</ele>
        <time>2013-06-15T10:51:24Z</time>
      </trkpt>
      <trkpt lat="45.05704" lon="5.38628">
        <ele>871.09</ele>
        <time>2013-06-15T10:51:36Z</time>
      </trkpt>
      <trkpt lat="45.05698" lon="5.38612">
        <ele>869.17</ele>
        <time>2013-06-15T10:51:48Z</time>
      </trkpt>
      <trkpt lat="45.05696" lon="5.38606">
        <ele>865.8</ele>
        <time>2013-06-15T10:52:03Z</time>
      </trkpt>
      <trkpt lat="45.05695" lon="5.38594">
        <ele>862.92</ele>
        <time>2013-06-15T10:52:15Z</time>
      </trkpt>
      <trkpt lat="45.05694" lon="5.38588">
        <ele>861</ele>
        <time>2013-06-15T10:52:22Z</time>
      </trkpt>
      <trkpt lat="45.0569" lon="5.38577">
        <ele>858.11</ele>
        <time>2013-06-15T10:52:34Z</time>
      </trkpt>
      <trkpt lat="45.05691" lon="5.38567">
        <ele>854.75</ele>
        <time>2013-06-15T10:52:46Z</time>
      </trkpt>
      <trkpt lat="45.05685" lon="5.38548">
        <ele>852.35</ele>
        <time>2013-06-15T10:52:58Z</time>
      </trkpt>
      <trkpt lat="45.0568" lon="5.38537">
        <ele>850.42</ele>
        <time>2013-06-15T10:53:15Z</time>
      </trkpt>
      <trkpt lat="45.05681" lon="5.38536">
        <ele>848.5</ele>
        <time>2013-06-15T10:53:31Z</time>
      </trkpt>
      <trkpt lat="45.05693" lon="5.38538">
        <ele>848.5</ele>
        <time>2013-06-15T10:53:54Z</time>
      </trkpt>
      <trkpt lat="45.05691" lon="5.38532">
        <ele>845.62</ele>
        <time>2013-06-15T10:54:07Z</time>
      </trkpt>
      <trkpt lat="45.05686" lon="5.38523">
        <ele>842.73</ele>
        <time>2013-06-15T10:54:18Z</time>
      </trkpt>
      <trkpt lat="45.05682" lon="5.38518">
        <ele>839.37</ele>
        <time>2013-06-15T10:54:28Z</time>
      </trkpt>
      <trkpt lat="45.05682" lon="5.38514">
        <ele>838.89</ele>
        <time>2013-06-15T10:54:35Z</time>
      </trkpt>
      <trkpt lat="45.05676" lon="5.38497">
        <ele>838.89</ele>
        <time>2013-06-15T10:54:50Z</time>
      </trkpt>
      <trkpt lat="45.05676" lon="5.38493">
        <ele>838.41</ele>
        <time>2013-06-15T10:55:01Z</time>
      </trkpt>
      <trkpt lat="45.05676" lon="5.38491">
        <ele>839.37</ele>
        <time>2013-06-15T10:55:02Z</time>
      </trkpt>
      <trkpt lat="45.05675" lon="5.38487">
        <ele>841.77</ele>
        <time>2013-06-15T10:55:23Z</time>
      </trkpt>
      <trkpt lat="45.05675" lon="5.38488">
        <ele>843.21</ele>
        <time>2013-06-15T10:55:38Z</time>
      </trkpt>
      <trkpt lat="45.05677" lon="5.38484">
        <ele>844.66</ele>
        <time>2013-06-15T10:56:01Z</time>
      </trkpt>
      <trkpt lat="45.05675" lon="5.38481">
        <ele>843.69</ele>
        <time>2013-06-15T10:56:04Z</time>
      </trkpt>
      <trkpt lat="45.05674" lon="5.38478">
        <ele>843.69</ele>
        <time>2013-06-15T10:56:06Z</time>
      </trkpt>
      <trkpt lat="45.05661" lon="5.38472">
        <ele>846.1</ele>
        <time>2013-06-15T10:56:18Z</time>
      </trkpt>
      <trkpt lat="45.05657" lon="5.38466">
        <ele>848.02</ele>
        <time>2013-06-15T10:56:34Z</time>
      </trkpt>
      <trkpt lat="45.05657" lon="5.38464">
        <ele>848.02</ele>
        <time>2013-06-15T10:56:45Z</time>
      </trkpt>
      <trkpt lat="45.05655" lon="5.38456">
        <ele>850.9</ele>
        <time>2013-06-15T10:56:59Z</time>
      </trkpt>
      <trkpt lat="45.05653" lon="5.38446">
        <ele>851.38</ele>
        <time>2013-06-15T10:57:14Z</time>
      </trkpt>
      <trkpt lat="45.05653" lon="5.38451">
        <ele>852.83</ele>
        <time>2013-06-15T10:57:36Z</time>
      </trkpt>
      <trkpt lat="45.05648" lon="5.3845">
        <ele>855.71</ele>
        <time>2013-06-15T10:57:49Z</time>
      </trkpt>
      <trkpt lat="45.05648" lon="5.38453">
        <ele>857.15</ele>
        <time>2013-06-15T10:58:00Z</time>
      </trkpt>
      <trkpt lat="45.05649" lon="5.38464">
        <ele>860.04</ele>
        <time>2013-06-15T10:58:16Z</time>
      </trkpt>
      <trkpt lat="45.05645" lon="5.38472">
        <ele>862.92</ele>
        <time>2013-06-15T10:58:36Z</time>
      </trkpt>
      <trkpt lat="45.05643" lon="5.3847">
        <ele>865.32</ele>
        <time>2013-06-15T10:58:51Z</time>
      </trkpt>
      <trkpt lat="45.05644" lon="5.38476">
        <ele>868.21</ele>
        <time>2013-06-15T10:59:07Z</time>
      </trkpt>
      <trkpt lat="45.05641" lon="5.38476">
        <ele>870.61</ele>
        <time>2013-06-15T10:59:28Z</time>
      </trkpt>
      <trkpt lat="45.0564" lon="5.3848">
        <ele>873.98</ele>
        <time>2013-06-15T10:59:49Z</time>
      </trkpt>
      <trkpt lat="45.05636" lon="5.3848">
        <ele>874.46</ele>
        <time>2013-06-15T10:59:57Z</time>
      </trkpt>
      <trkpt lat="45.05623" lon="5.38489">
        <ele>877.82</ele>
        <time>2013-06-15T11:00:21Z</time>
      </trkpt>
      <trkpt lat="45.05633" lon="5.385">
        <ele>919.64</ele>
        <time>2013-06-15T11:09:31Z</time>
      </trkpt>
      <trkpt lat="45.05629" lon="5.38505">
        <ele>920.12</ele>
        <time>2013-06-15T11:10:02Z</time>
      </trkpt>
      <trkpt lat="45.05629" lon="5.38523">
        <ele>921.08</ele>
        <time>2013-06-15T11:10:27Z</time>
      </trkpt>
      <trkpt lat="45.05632" lon="5.38534">
        <ele>922.04</ele>
        <time>2013-06-15T11:10:56Z</time>
      </trkpt>
      <trkpt lat="45.05627" lon="5.38536">
        <ele>925.41</ele>
        <time>2013-06-15T11:11:14Z</time>
      </trkpt>
      <trkpt lat="45.05626" lon="5.38544">
        <ele>928.29</ele>
        <time>2013-06-15T11:11:25Z</time>
      </trkpt>
      <trkpt lat="45.05625" lon="5.38547">
        <ele>930.69</ele>
        <time>2013-06-15T11:11:43Z</time>
      </trkpt>
      <trkpt lat="45.05617" lon="5.38551">
        <ele>933.58</ele>
        <time>2013-06-15T11:12:07Z</time>
      </trkpt>
      <trkpt lat="45.05613" lon="5.38565">
        <ele>968.18</ele>
        <time>2013-06-15T11:20:33Z</time>
      </trkpt>
      <trkpt lat="45.05614" lon="5.38561">
        <ele>968.18</ele>
        <time>2013-06-15T11:20:52Z</time>
      </trkpt>
      <trkpt lat="45.05609" lon="5.38561">
        <ele>969.63</ele>
        <time>2013-06-15T11:21:11Z</time>
      </trkpt>
      <trkpt lat="45.05608" lon="5.38563">
        <ele>967.7</ele>
        <time>2013-06-15T11:21:17Z</time>
      </trkpt>
      <trkpt lat="45.05599" lon="5.38573">
        <ele>968.18</ele>
        <time>2013-06-15T11:21:36Z</time>
      </trkpt>
      <trkpt lat="45.056" lon="5.38595">
        <ele>966.74</ele>
        <time>2013-06-15T11:21:57Z</time>
      </trkpt>
      <trkpt lat="45.05599" lon="5.38619">
        <ele>966.74</ele>
        <time>2013-06-15T11:22:15Z</time>
      </trkpt>
      <trkpt lat="45.05591" lon="5.38629">
        <ele>968.67</ele>
        <time>2013-06-15T11:22:35Z</time>
      </trkpt>
      <trkpt lat="45.05577" lon="5.38633">
        <ele>971.55</ele>
        <time>2013-06-15T11:22:54Z</time>
      </trkpt>
      <trkpt lat="45.05564" lon="5.38635">
        <ele>973.95</ele>
        <time>2013-06-15T11:23:12Z</time>
      </trkpt>
      <trkpt lat="45.05551" lon="5.38623">
        <ele>975.88</ele>
        <time>2013-06-15T11:23:29Z</time>
      </trkpt>
      <trkpt lat="45.05547" lon="5.38638">
        <ele>976.36</ele>
        <time>2013-06-15T11:23:53Z</time>
      </trkpt>
      <trkpt lat="45.05542" lon="5.3864">
        <ele>979.24</ele>
        <time>2013-06-15T11:24:15Z</time>
      </trkpt>
      <trkpt lat="45.05537" lon="5.38645">
        <ele>982.6</ele>
        <time>2013-06-15T11:24:28Z</time>
      </trkpt>
      <trkpt lat="45.05533" lon="5.3866">
        <ele>985.49</ele>
        <time>2013-06-15T11:24:43Z</time>
      </trkpt>
      <trkpt lat="45.05532" lon="5.38674">
        <ele>988.37</ele>
        <time>2013-06-15T11:25:01Z</time>
      </trkpt>
      <trkpt lat="45.05523" lon="5.38683">
        <ele>990.78</ele>
        <time>2013-06-15T11:25:18Z</time>
      </trkpt>
      <trkpt lat="45.05522" lon="5.38691">
        <ele>993.18</ele>
        <time>2013-06-15T11:25:26Z</time>
      </trkpt>
      <trkpt lat="45.05518" lon="5.38704">
        <ele>996.06</ele>
        <time>2013-06-15T11:25:44Z</time>
      </trkpt>
      <trkpt lat="45.05517" lon="5.38705">
        <ele>997.02</ele>
        <time>2013-06-15T11:25:46Z</time>
      </trkpt>
      <trkpt lat="45.05511" lon="5.38713">
        <ele>998.47</ele>
        <time>2013-06-15T11:26:01Z</time>
      </trkpt>
      <trkpt lat="45.05503" lon="5.38722">
        <ele>1000.87</ele>
        <time>2013-06-15T11:26:17Z</time>
      </trkpt>
      <trkpt lat="45.05494" lon="5.38728">
        <ele>1003.27</ele>
        <time>2013-06-15T11:26:34Z</time>
      </trkpt>
      <trkpt lat="45.05493" lon="5.38729">
        <ele>1004.23</ele>
        <time>2013-06-15T11:26:36Z</time>
      </trkpt>
      <trkpt lat="45.05488" lon="5.3874">
        <ele>1007.12</ele>
        <time>2013-06-15T11:26:51Z</time>
      </trkpt>
      <trkpt lat="45.05475" lon="5.38738">
        <ele>1009.52</ele>
        <time>2013-06-15T11:27:10Z</time>
      </trkpt>
      <trkpt lat="45.05477" lon="5.38737">
        <ele>1010</ele>
        <time>2013-06-15T11:27:34Z</time>
      </trkpt>
      <trkpt lat="45.05466" lon="5.38739">
        <ele>1012.41</ele>
        <time>2013-06-15T11:27:52Z</time>
      </trkpt>
      <trkpt lat="45.05459" lon="5.38739">
        <ele>1012.89</ele>
        <time>2013-06-15T11:28:06Z</time>
      </trkpt>
      <trkpt lat="45.05451" lon="5.38746">
        <ele>1015.77</ele>
        <time>2013-06-15T11:28:20Z</time>
      </trkpt>
      <trkpt lat="45.05441" lon="5.38752">
        <ele>1018.17</ele>
        <time>2013-06-15T11:28:35Z</time>
      </trkpt>
      <trkpt lat="45.05433" lon="5.38763">
        <ele>1017.69</ele>
        <time>2013-06-15T11:28:50Z</time>
      </trkpt>
      <trkpt lat="45.05419" lon="5.38769">
        <ele>1017.69</ele>
        <time>2013-06-15T11:29:09Z</time>
      </trkpt>
      <trkpt lat="45.05408" lon="5.38765">
        <ele>1018.17</ele>
        <time>2013-06-15T11:29:26Z</time>
      </trkpt>
      <trkpt lat="45.05397" lon="5.38758">
        <ele>1017.21</ele>
        <time>2013-06-15T11:29:40Z</time>
      </trkpt>
      <trkpt lat="45.05395" lon="5.38759">
        <ele>1017.69</ele>
        <time>2013-06-15T11:30:03Z</time>
      </trkpt>
      <trkpt lat="45.05386" lon="5.38752">
        <ele>1016.73</ele>
        <time>2013-06-15T11:30:15Z</time>
      </trkpt>
      <trkpt lat="45.05374" lon="5.3875">
        <ele>1016.73</ele>
        <time>2013-06-15T11:30:28Z</time>
      </trkpt>
      <trkpt lat="45.05362" lon="5.38754">
        <ele>1016.73</ele>
        <time>2013-06-15T11:30:43Z</time>
      </trkpt>
      <trkpt lat="45.05348" lon="5.38763">
        <ele>1016.25</ele>
        <time>2013-06-15T11:31:01Z</time>
      </trkpt>
      <trkpt lat="45.05333" lon="5.38766">
        <ele>1015.77</ele>
        <time>2013-06-15T11:31:18Z</time>
      </trkpt>
      <trkpt lat="45.05331" lon="5.38766">
        <ele>1017.21</ele>
        <time>2013-06-15T11:31:20Z</time>
      </trkpt>
      <trkpt lat="45.0532" lon="5.38777">
        <ele>1017.21</ele>
        <time>2013-06-15T11:31:35Z</time>
      </trkpt>
      <trkpt lat="45.05302" lon="5.38788">
        <ele>1016.73</ele>
        <time>2013-06-15T11:31:53Z</time>
      </trkpt>
      <trkpt lat="45.0529" lon="5.38796">
        <ele>1017.21</ele>
        <time>2013-06-15T11:32:07Z</time>
      </trkpt>
      <trkpt lat="45.05279" lon="5.38798">
        <ele>1019.62</ele>
        <time>2013-06-15T11:32:23Z</time>
      </trkpt>
      <trkpt lat="45.05271" lon="5.38795">
        <ele>1020.58</ele>
        <time>2013-06-15T11:32:33Z</time>
      </trkpt>
      <trkpt lat="45.05259" lon="5.38794">
        <ele>1022.5</ele>
        <time>2013-06-15T11:32:50Z</time>
      </trkpt>
      <trkpt lat="45.05248" lon="5.38793">
        <ele>1023.46</ele>
        <time>2013-06-15T11:33:04Z</time>
      </trkpt>
      <trkpt lat="45.05234" lon="5.38804">
        <ele>1025.86</ele>
        <time>2013-06-15T11:33:23Z</time>
      </trkpt>
      <trkpt lat="45.05226" lon="5.38816">
        <ele>1027.79</ele>
        <time>2013-06-15T11:33:39Z</time>
      </trkpt>
      <trkpt lat="45.05216" lon="5.38822">
        <ele>1030.19</ele>
        <time>2013-06-15T11:33:55Z</time>
      </trkpt>
      <trkpt lat="45.05205" lon="5.38828">
        <ele>1032.59</ele>
        <time>2013-06-15T11:34:11Z</time>
      </trkpt>
      <trkpt lat="45.05193" lon="5.38839">
        <ele>1032.59</ele>
        <time>2013-06-15T11:34:28Z</time>
      </trkpt>
      <trkpt lat="45.0518" lon="5.38846">
        <ele>1034.04</ele>
        <time>2013-06-15T11:34:45Z</time>
      </trkpt>
      <trkpt lat="45.05169" lon="5.38845">
        <ele>1035.48</ele>
        <time>2013-06-15T11:35:02Z</time>
      </trkpt>
      <trkpt lat="45.05156" lon="5.38851">
        <ele>1037.4</ele>
        <time>2013-06-15T11:35:19Z</time>
      </trkpt>
      <trkpt lat="45.05143" lon="5.38859">
        <ele>1039.32</ele>
        <time>2013-06-15T11:35:36Z</time>
      </trkpt>
      <trkpt lat="45.05131" lon="5.38862">
        <ele>1039.32</ele>
        <time>2013-06-15T11:35:53Z</time>
      </trkpt>
      <trkpt lat="45.05121" lon="5.38862">
        <ele>1039.32</ele>
        <time>2013-06-15T11:36:09Z</time>
      </trkpt>
      <trkpt lat="45.05111" lon="5.38864">
        <ele>1039.32</ele>
        <time>2013-06-15T11:36:24Z</time>
      </trkpt>
      <trkpt lat="45.05099" lon="5.38872">
        <ele>1039.8</ele>
        <time>2013-06-15T11:36:38Z</time>
      </trkpt>
      <trkpt lat="45.05085" lon="5.3888">
        <ele>1040.28</ele>
        <time>2013-06-15T11:36:53Z</time>
      </trkpt>
      <trkpt lat="45.05074" lon="5.38887">
        <ele>1040.28</ele>
        <time>2013-06-15T11:37:08Z</time>
      </trkpt>
      <trkpt lat="45.05062" lon="5.38891">
        <ele>1041.25</ele>
        <time>2013-06-15T11:37:24Z</time>
      </trkpt>
      <trkpt lat="45.0505" lon="5.38897">
        <ele>1040.76</ele>
        <time>2013-06-15T11:37:40Z</time>
      </trkpt>
      <trkpt lat="45.0504" lon="5.38901">
        <ele>1042.21</ele>
        <time>2013-06-15T11:37:51Z</time>
      </trkpt>
      <trkpt lat="45.05031" lon="5.38906">
        <ele>1042.21</ele>
        <time>2013-06-15T11:38:05Z</time>
      </trkpt>
      <trkpt lat="45.05022" lon="5.38914">
        <ele>1045.57</ele>
        <time>2013-06-15T11:38:16Z</time>
      </trkpt>
      <trkpt lat="45.05011" lon="5.3892">
        <ele>1044.13</ele>
        <time>2013-06-15T11:38:31Z</time>
      </trkpt>
      <trkpt lat="45.04998" lon="5.38929">
        <ele>1044.13</ele>
        <time>2013-06-15T11:38:47Z</time>
      </trkpt>
      <trkpt lat="45.04986" lon="5.38937">
        <ele>1046.53</ele>
        <time>2013-06-15T11:39:02Z</time>
      </trkpt>
      <trkpt lat="45.04973" lon="5.38947">
        <ele>1043.65</ele>
        <time>2013-06-15T11:39:19Z</time>
      </trkpt>
      <trkpt lat="45.04959" lon="5.38956">
        <ele>1042.69</ele>
        <time>2013-06-15T11:39:34Z</time>
      </trkpt>
      <trkpt lat="45.04952" lon="5.3896">
        <ele>1044.61</ele>
        <time>2013-06-15T11:39:41Z</time>
      </trkpt>
      <trkpt lat="45.0495" lon="5.38961">
        <ele>1041.73</ele>
        <time>2013-06-15T11:39:43Z</time>
      </trkpt>
      <trkpt lat="45.04949" lon="5.38961">
        <ele>1044.61</ele>
        <time>2013-06-15T11:39:45Z</time>
      </trkpt>
      <trkpt lat="45.04937" lon="5.38963">
        <ele>1045.09</ele>
        <time>2013-06-15T11:40:00Z</time>
      </trkpt>
      <trkpt lat="45.04927" lon="5.38964">
        <ele>1047.49</ele>
        <time>2013-06-15T11:40:13Z</time>
      </trkpt>
      <trkpt lat="45.04916" lon="5.38966">
        <ele>1049.9</ele>
        <time>2013-06-15T11:40:27Z</time>
      </trkpt>
      <trkpt lat="45.04915" lon="5.38966">
        <ele>1047.49</ele>
        <time>2013-06-15T11:40:28Z</time>
      </trkpt>
      <trkpt lat="45.04913" lon="5.38968">
        <ele>1050.38</ele>
        <time>2013-06-15T11:40:30Z</time>
      </trkpt>
      <trkpt lat="45.04902" lon="5.38973">
        <ele>1050.38</ele>
        <time>2013-06-15T11:40:43Z</time>
      </trkpt>
      <trkpt lat="45.04901" lon="5.38975">
        <ele>1048.45</ele>
        <time>2013-06-15T11:40:45Z</time>
      </trkpt>
      <trkpt lat="45.04896" lon="5.38981">
        <ele>1048.94</ele>
        <time>2013-06-15T11:40:54Z</time>
      </trkpt>
      <trkpt lat="45.04894" lon="5.38982">
        <ele>1052.78</ele>
        <time>2013-06-15T11:40:56Z</time>
      </trkpt>
      <trkpt lat="45.04893" lon="5.38982">
        <ele>1050.38</ele>
        <time>2013-06-15T11:40:57Z</time>
      </trkpt>
      <trkpt lat="45.04892" lon="5.38982">
        <ele>1053.74</ele>
        <time>2013-06-15T11:40:58Z</time>
      </trkpt>
      <trkpt lat="45.04878" lon="5.3898">
        <ele>1055.67</ele>
        <time>2013-06-15T11:41:14Z</time>
      </trkpt>
      <trkpt lat="45.04877" lon="5.38981">
        <ele>1054.7</ele>
        <time>2013-06-15T11:41:15Z</time>
      </trkpt>
      <trkpt lat="45.04871" lon="5.38983">
        <ele>1057.11</ele>
        <time>2013-06-15T11:41:31Z</time>
      </trkpt>
      <trkpt lat="45.04867" lon="5.38979">
        <ele>1059.03</ele>
        <time>2013-06-15T11:41:40Z</time>
      </trkpt>
      <trkpt lat="45.04851" lon="5.38985">
        <ele>1061.91</ele>
        <time>2013-06-15T11:41:59Z</time>
      </trkpt>
      <trkpt lat="45.04848" lon="5.38985">
        <ele>1063.84</ele>
        <time>2013-06-15T11:42:04Z</time>
      </trkpt>
      <trkpt lat="45.04841" lon="5.38986">
        <ele>1064.8</ele>
        <time>2013-06-15T11:42:22Z</time>
      </trkpt>
      <trkpt lat="45.04836" lon="5.38995">
        <ele>1067.68</ele>
        <time>2013-06-15T11:42:36Z</time>
      </trkpt>
      <trkpt lat="45.04833" lon="5.39008">
        <ele>1070.08</ele>
        <time>2013-06-15T11:42:55Z</time>
      </trkpt>
      <trkpt lat="45.04835" lon="5.39024">
        <ele>1072.49</ele>
        <time>2013-06-15T11:43:07Z</time>
      </trkpt>
      <trkpt lat="45.04834" lon="5.39025">
        <ele>1073.45</ele>
        <time>2013-06-15T11:43:12Z</time>
      </trkpt>
      <trkpt lat="45.04835" lon="5.39026">
        <ele>1074.89</ele>
        <time>2013-06-15T11:43:19Z</time>
      </trkpt>
      <trkpt lat="45.04835" lon="5.39028">
        <ele>1073.93</ele>
        <time>2013-06-15T11:43:31Z</time>
      </trkpt>
      <trkpt lat="45.04835" lon="5.39029">
        <ele>1076.33</ele>
        <time>2013-06-15T11:43:32Z</time>
      </trkpt>
      <trkpt lat="45.04835" lon="5.39032">
        <ele>1077.29</ele>
        <time>2013-06-15T11:43:42Z</time>
      </trkpt>
      <trkpt lat="45.04835" lon="5.39032">
        <ele>1075.85</ele>
        <time>2013-06-15T11:43:45Z</time>
      </trkpt>
      <trkpt lat="45.04834" lon="5.39037">
        <ele>1078.26</ele>
        <time>2013-06-15T11:43:54Z</time>
      </trkpt>
      <trkpt lat="45.04829" lon="5.39065">
        <ele>1079.7</ele>
        <time>2013-06-15T11:44:04Z</time>
      </trkpt>
      <trkpt lat="45.04813" lon="5.3907">
        <ele>1082.1</ele>
        <time>2013-06-15T11:44:22Z</time>
      </trkpt>
      <trkpt lat="45.04808" lon="5.39068">
        <ele>1084.02</ele>
        <time>2013-06-15T11:44:30Z</time>
      </trkpt>
      <trkpt lat="45.04808" lon="5.39068">
        <ele>1082.58</ele>
        <time>2013-06-15T11:44:31Z</time>
      </trkpt>
      <trkpt lat="45.04807" lon="5.39062">
        <ele>1085.47</ele>
        <time>2013-06-15T11:44:39Z</time>
      </trkpt>
      <trkpt lat="45.04806" lon="5.39062">
        <ele>1084.5</ele>
        <time>2013-06-15T11:44:40Z</time>
      </trkpt>
      <trkpt lat="45.04806" lon="5.39061">
        <ele>1085.47</ele>
        <time>2013-06-15T11:44:41Z</time>
      </trkpt>
      <trkpt lat="45.04805" lon="5.3906">
        <ele>1085.47</ele>
        <time>2013-06-15T11:44:43Z</time>
      </trkpt>
      <trkpt lat="45.048" lon="5.39057">
        <ele>1086.43</ele>
        <time>2013-06-15T11:44:52Z</time>
      </trkpt>
      <trkpt lat="45.04796" lon="5.39055">
        <ele>1083.06</ele>
        <time>2013-06-15T11:45:01Z</time>
      </trkpt>
      <trkpt lat="45.04795" lon="5.39054">
        <ele>1083.06</ele>
        <time>2013-06-15T11:45:02Z</time>
      </trkpt>
      <trkpt lat="45.04794" lon="5.39054">
        <ele>1085.47</ele>
        <time>2013-06-15T11:45:03Z</time>
      </trkpt>
      <trkpt lat="45.0479" lon="5.39051">
        <ele>1084.99</ele>
        <time>2013-06-15T11:45:08Z</time>
      </trkpt>
      <trkpt lat="45.04789" lon="5.39051">
        <ele>1087.39</ele>
        <time>2013-06-15T11:45:09Z</time>
      </trkpt>
      <trkpt lat="45.04787" lon="5.39049">
        <ele>1087.39</ele>
        <time>2013-06-15T11:45:27Z</time>
      </trkpt>
      <trkpt lat="45.04787" lon="5.39049">
        <ele>1087.39</ele>
        <time>2013-06-15T11:45:28Z</time>
      </trkpt>
      <trkpt lat="45.04793" lon="5.39055">
        <ele>1087.39</ele>
        <time>2013-06-15T11:45:52Z</time>
      </trkpt>
      <trkpt lat="45.04792" lon="5.39057">
        <ele>1086.91</ele>
        <time>2013-06-15T11:46:16Z</time>
      </trkpt>
      <trkpt lat="45.04788" lon="5.39051">
        <ele>1087.87</ele>
        <time>2013-06-15T11:46:34Z</time>
      </trkpt>
      <trkpt lat="45.04775" lon="5.39042">
        <ele>1087.39</ele>
        <time>2013-06-15T11:46:55Z</time>
      </trkpt>
      <trkpt lat="45.04772" lon="5.39041">
        <ele>1085.95</ele>
        <time>2013-06-15T11:46:59Z</time>
      </trkpt>
      <trkpt lat="45.0477" lon="5.39041">
        <ele>1088.35</ele>
        <time>2013-06-15T11:47:01Z</time>
      </trkpt>
      <trkpt lat="45.04763" lon="5.39037">
        <ele>1089.79</ele>
        <time>2013-06-15T11:47:16Z</time>
      </trkpt>
      <trkpt lat="45.04755" lon="5.39031">
        <ele>1092.2</ele>
        <time>2013-06-15T11:47:31Z</time>
      </trkpt>
      <trkpt lat="45.04745" lon="5.39025">
        <ele>1093.64</ele>
        <time>2013-06-15T11:47:47Z</time>
      </trkpt>
      <trkpt lat="45.04731" lon="5.39017">
        <ele>1096.52</ele>
        <time>2013-06-15T11:48:07Z</time>
      </trkpt>
      <trkpt lat="45.0472" lon="5.39014">
        <ele>1097.48</ele>
        <time>2013-06-15T11:48:18Z</time>
      </trkpt>
      <trkpt lat="45.04713" lon="5.39018">
        <ele>1098.92</ele>
        <time>2013-06-15T11:48:32Z</time>
      </trkpt>
      <trkpt lat="45.04713" lon="5.39018">
        <ele>1098.92</ele>
        <time>2013-06-15T11:48:33Z</time>
      </trkpt>
      <trkpt lat="45.04715" lon="5.39025">
        <ele>1099.4</ele>
        <time>2013-06-15T11:48:38Z</time>
      </trkpt>
      <trkpt lat="45.04718" lon="5.39042">
        <ele>1099.89</ele>
        <time>2013-06-15T11:48:55Z</time>
      </trkpt>
      <trkpt lat="45.04722" lon="5.39054">
        <ele>1102.29</ele>
        <time>2013-06-15T11:49:08Z</time>
      </trkpt>
      <trkpt lat="45.04724" lon="5.39071">
        <ele>1104.69</ele>
        <time>2013-06-15T11:49:24Z</time>
      </trkpt>
      <trkpt lat="45.04728" lon="5.39077">
        <ele>1105.65</ele>
        <time>2013-06-15T11:49:42Z</time>
      </trkpt>
      <trkpt lat="45.04729" lon="5.3908">
        <ele>1105.65</ele>
        <time>2013-06-15T11:49:46Z</time>
      </trkpt>
      <trkpt lat="45.04733" lon="5.39089">
        <ele>1105.65</ele>
        <time>2013-06-15T11:49:55Z</time>
      </trkpt>
      <trkpt lat="45.04737" lon="5.39105">
        <ele>1106.61</ele>
        <time>2013-06-15T11:50:09Z</time>
      </trkpt>
      <trkpt lat="45.04742" lon="5.39113">
        <ele>1107.1</ele>
        <time>2013-06-15T11:50:22Z</time>
      </trkpt>
      <trkpt lat="45.04741" lon="5.39115">
        <ele>1107.1</ele>
        <time>2013-06-15T11:50:35Z</time>
      </trkpt>
      <trkpt lat="45.04739" lon="5.39112">
        <ele>1108.06</ele>
        <time>2013-06-15T11:50:51Z</time>
      </trkpt>
      <trkpt lat="45.04742" lon="5.39117">
        <ele>1106.61</ele>
        <time>2013-06-15T11:51:03Z</time>
      </trkpt>
      <trkpt lat="45.04739" lon="5.39114">
        <ele>1107.1</ele>
        <time>2013-06-15T11:51:23Z</time>
      </trkpt>
      <trkpt lat="45.04741" lon="5.39116">
        <ele>1107.1</ele>
        <time>2013-06-15T11:51:36Z</time>
      </trkpt>
      <trkpt lat="45.04741" lon="5.39114">
        <ele>1107.58</ele>
        <time>2013-06-15T11:51:59Z</time>
      </trkpt>
      <trkpt lat="45.04741" lon="5.39112">
        <ele>1107.1</ele>
        <time>2013-06-15T11:52:36Z</time>
      </trkpt>
      <trkpt lat="45.04737" lon="5.3912">
        <ele>1106.13</ele>
        <time>2013-06-15T11:52:49Z</time>
      </trkpt>
      <trkpt lat="45.04739" lon="5.3912">
        <ele>1106.61</ele>
        <time>2013-06-15T11:53:08Z</time>
      </trkpt>
      <trkpt lat="45.04737" lon="5.39123">
        <ele>1105.65</ele>
        <time>2013-06-15T11:53:33Z</time>
      </trkpt>
      <trkpt lat="45.04738" lon="5.3912">
        <ele>1105.17</ele>
        <time>2013-06-15T11:54:03Z</time>
      </trkpt>
      <trkpt lat="45.04737" lon="5.3912">
        <ele>1106.61</ele>
        <time>2013-06-15T11:54:32Z</time>
      </trkpt>
      <trkpt lat="45.04735" lon="5.39119">
        <ele>1105.65</ele>
        <time>2013-06-15T11:55:03Z</time>
      </trkpt>
      <trkpt lat="45.04734" lon="5.39122">
        <ele>1106.13</ele>
        <time>2013-06-15T11:55:39Z</time>
      </trkpt>
      <trkpt lat="45.04731" lon="5.39131">
        <ele>1106.61</ele>
        <time>2013-06-15T11:56:16Z</time>
      </trkpt>
      <trkpt lat="45.04735" lon="5.39127">
        <ele>1107.58</ele>
        <time>2013-06-15T11:57:57Z</time>
      </trkpt>
      <trkpt lat="45.04733" lon="5.39128">
        <ele>1117.67</ele>
        <time>2013-06-15T12:21:58Z</time>
      </trkpt>
      <trkpt lat="45.04729" lon="5.39127">
        <ele>1117.67</ele>
        <time>2013-06-15T12:22:19Z</time>
      </trkpt>
      <trkpt lat="45.04729" lon="5.39124">
        <ele>1118.15</ele>
        <time>2013-06-15T12:23:06Z</time>
      </trkpt>
      <trkpt lat="45.04731" lon="5.39126">
        <ele>1118.15</ele>
        <time>2013-06-15T12:23:33Z</time>
      </trkpt>
      <trkpt lat="45.04734" lon="5.39128">
        <ele>1117.67</ele>
        <time>2013-06-15T12:23:56Z</time>
      </trkpt>
      <trkpt lat="45.04732" lon="5.39124">
        <ele>1117.67</ele>
        <time>2013-06-15T12:24:15Z</time>
      </trkpt>
      <trkpt lat="45.04725" lon="5.39127">
        <ele>1118.63</ele>
        <time>2013-06-15T12:24:31Z</time>
      </trkpt>
      <trkpt lat="45.04709" lon="5.3913">
        <ele>1119.59</ele>
        <time>2013-06-15T12:24:47Z</time>
      </trkpt>
      <trkpt lat="45.04691" lon="5.3913">
        <ele>1118.15</ele>
        <time>2013-06-15T12:25:05Z</time>
      </trkpt>
      <trkpt lat="45.04683" lon="5.3913">
        <ele>1117.67</ele>
        <time>2013-06-15T12:25:19Z</time>
      </trkpt>
      <trkpt lat="45.0467" lon="5.39132">
        <ele>1118.63</ele>
        <time>2013-06-15T12:25:36Z</time>
      </trkpt>
      <trkpt lat="45.04661" lon="5.39134">
        <ele>1117.67</ele>
        <time>2013-06-15T12:25:51Z</time>
      </trkpt>
      <trkpt lat="45.04647" lon="5.3915">
        <ele>1115.75</ele>
        <time>2013-06-15T12:26:05Z</time>
      </trkpt>
      <trkpt lat="45.04637" lon="5.39169">
        <ele>1113.82</ele>
        <time>2013-06-15T12:26:14Z</time>
      </trkpt>
      <trkpt lat="45.04627" lon="5.39198">
        <ele>1112.86</ele>
        <time>2013-06-15T12:26:30Z</time>
      </trkpt>
      <trkpt lat="45.04626" lon="5.39216">
        <ele>1111.42</ele>
        <time>2013-06-15T12:26:44Z</time>
      </trkpt>
      <trkpt lat="45.04624" lon="5.39235">
        <ele>1109.98</ele>
        <time>2013-06-15T12:26:56Z</time>
      </trkpt>
      <trkpt lat="45.04622" lon="5.39251">
        <ele>1109.98</ele>
        <time>2013-06-15T12:27:09Z</time>
      </trkpt>
      <trkpt lat="45.04621" lon="5.39258">
        <ele>1110.94</ele>
        <time>2013-06-15T12:27:30Z</time>
      </trkpt>
      <trkpt lat="45.04623" lon="5.39258">
        <ele>1110.46</ele>
        <time>2013-06-15T12:27:43Z</time>
      </trkpt>
      <trkpt lat="45.04622" lon="5.39258">
        <ele>1109.98</ele>
        <time>2013-06-15T12:27:53Z</time>
      </trkpt>
      <trkpt lat="45.04625" lon="5.39254">
        <ele>1109.02</ele>
        <time>2013-06-15T12:28:06Z</time>
      </trkpt>
      <trkpt lat="45.04624" lon="5.39261">
        <ele>1109.5</ele>
        <time>2013-06-15T12:28:23Z</time>
      </trkpt>
      <trkpt lat="45.04625" lon="5.39278">
        <ele>1110.46</ele>
        <time>2013-06-15T12:28:38Z</time>
      </trkpt>
      <trkpt lat="45.0463" lon="5.39298">
        <ele>1109.98</ele>
        <time>2013-06-15T12:28:56Z</time>
      </trkpt>
      <trkpt lat="45.04641" lon="5.39345">
        <ele>1110.46</ele>
        <time>2013-06-15T12:29:17Z</time>
      </trkpt>
      <trkpt lat="45.04648" lon="5.39356">
        <ele>1109.5</ele>
        <time>2013-06-15T12:29:35Z</time>
      </trkpt>
      <trkpt lat="45.04646" lon="5.39368">
        <ele>1109.5</ele>
        <time>2013-06-15T12:29:51Z</time>
      </trkpt>
      <trkpt lat="45.04644" lon="5.39383">
        <ele>1109.98</ele>
        <time>2013-06-15T12:30:08Z</time>
      </trkpt>
      <trkpt lat="45.04647" lon="5.39395">
        <ele>1110.46</ele>
        <time>2013-06-15T12:30:18Z</time>
      </trkpt>
      <trkpt lat="45.04652" lon="5.39416">
        <ele>1110.46</ele>
        <time>2013-06-15T12:30:34Z</time>
      </trkpt>
      <trkpt lat="45.0465" lon="5.39434">
        <ele>1112.38</ele>
        <time>2013-06-15T12:30:47Z</time>
      </trkpt>
      <trkpt lat="45.04651" lon="5.39447">
        <ele>1113.34</ele>
        <time>2013-06-15T12:30:58Z</time>
      </trkpt>
      <trkpt lat="45.04647" lon="5.39459">
        <ele>1113.34</ele>
        <time>2013-06-15T12:31:12Z</time>
      </trkpt>
      <trkpt lat="45.04652" lon="5.39475">
        <ele>1113.34</ele>
        <time>2013-06-15T12:31:29Z</time>
      </trkpt>
      <trkpt lat="45.04653" lon="5.39487">
        <ele>1113.82</ele>
        <time>2013-06-15T12:31:38Z</time>
      </trkpt>
      <trkpt lat="45.04656" lon="5.39512">
        <ele>1114.79</ele>
        <time>2013-06-15T12:31:56Z</time>
      </trkpt>
      <trkpt lat="45.04652" lon="5.39521">
        <ele>1115.27</ele>
        <time>2013-06-15T12:32:15Z</time>
      </trkpt>
      <trkpt lat="45.04655" lon="5.39522">
        <ele>1114.79</ele>
        <time>2013-06-15T12:32:22Z</time>
      </trkpt>
      <trkpt lat="45.04671" lon="5.39535">
        <ele>1112.86</ele>
        <time>2013-06-15T12:32:38Z</time>
      </trkpt>
      <trkpt lat="45.04678" lon="5.39544">
        <ele>1112.38</ele>
        <time>2013-06-15T12:32:51Z</time>
      </trkpt>
      <trkpt lat="45.04695" lon="5.39552">
        <ele>1111.9</ele>
        <time>2013-06-15T12:33:02Z</time>
      </trkpt>
      <trkpt lat="45.04699" lon="5.39558">
        <ele>1111.9</ele>
        <time>2013-06-15T12:33:16Z</time>
      </trkpt>
      <trkpt lat="45.04697" lon="5.39564">
        <ele>1111.9</ele>
        <time>2013-06-15T12:33:31Z</time>
      </trkpt>
      <trkpt lat="45.0469" lon="5.39567">
        <ele>1111.9</ele>
        <time>2013-06-15T12:33:50Z</time>
      </trkpt>
      <trkpt lat="45.04685" lon="5.3957">
        <ele>1112.86</ele>
        <time>2013-06-15T12:34:07Z</time>
      </trkpt>
      <trkpt lat="45.04676" lon="5.39571">
        <ele>1114.31</ele>
        <time>2013-06-15T12:34:23Z</time>
      </trkpt>
      <trkpt lat="45.04671" lon="5.39571">
        <ele>1114.31</ele>
        <time>2013-06-15T12:34:39Z</time>
      </trkpt>
      <trkpt lat="45.04663" lon="5.39572">
        <ele>1117.67</ele>
        <time>2013-06-15T12:34:52Z</time>
      </trkpt>
      <trkpt lat="45.04651" lon="5.39577">
        <ele>1119.59</ele>
        <time>2013-06-15T12:35:07Z</time>
      </trkpt>
      <trkpt lat="45.0464" lon="5.39592">
        <ele>1119.59</ele>
        <time>2013-06-15T12:35:26Z</time>
      </trkpt>
      <trkpt lat="45.04638" lon="5.396">
        <ele>1119.59</ele>
        <time>2013-06-15T12:35:42Z</time>
      </trkpt>
      <trkpt lat="45.04634" lon="5.39606">
        <ele>1123.44</ele>
        <time>2013-06-15T12:35:58Z</time>
      </trkpt>
      <trkpt lat="45.04631" lon="5.39615">
        <ele>1126.32</ele>
        <time>2013-06-15T12:36:11Z</time>
      </trkpt>
      <trkpt lat="45.04634" lon="5.39625">
        <ele>1127.28</ele>
        <time>2013-06-15T12:36:26Z</time>
      </trkpt>
      <trkpt lat="45.04635" lon="5.39625">
        <ele>1126.8</ele>
        <time>2013-06-15T12:36:48Z</time>
      </trkpt>
      <trkpt lat="45.04633" lon="5.39623">
        <ele>1127.28</ele>
        <time>2013-06-15T12:37:09Z</time>
      </trkpt>
      <trkpt lat="45.04634" lon="5.3962">
        <ele>1127.28</ele>
        <time>2013-06-15T12:37:36Z</time>
      </trkpt>
      <trkpt lat="45.0463" lon="5.39623">
        <ele>1127.28</ele>
        <time>2013-06-15T12:38:03Z</time>
      </trkpt>
      <trkpt lat="45.04625" lon="5.39622">
        <ele>1130.17</ele>
        <time>2013-06-15T12:38:16Z</time>
      </trkpt>
      <trkpt lat="45.04619" lon="5.39617">
        <ele>1133.53</ele>
        <time>2013-06-15T12:38:28Z</time>
      </trkpt>
      <trkpt lat="45.04612" lon="5.39609">
        <ele>1135.94</ele>
        <time>2013-06-15T12:38:42Z</time>
      </trkpt>
      <trkpt lat="45.04611" lon="5.39607">
        <ele>1136.9</ele>
        <time>2013-06-15T12:38:46Z</time>
      </trkpt>
      <trkpt lat="45.04609" lon="5.396">
        <ele>1138.82</ele>
        <time>2013-06-15T12:39:00Z</time>
      </trkpt>
      <trkpt lat="45.0461" lon="5.39592">
        <ele>1141.7</ele>
        <time>2013-06-15T12:39:14Z</time>
      </trkpt>
      <trkpt lat="45.04614" lon="5.39584">
        <ele>1143.14</ele>
        <time>2013-06-15T12:39:26Z</time>
      </trkpt>
      <trkpt lat="45.04613" lon="5.39574">
        <ele>1145.07</ele>
        <time>2013-06-15T12:39:41Z</time>
      </trkpt>
      <trkpt lat="45.04611" lon="5.39561">
        <ele>1147.95</ele>
        <time>2013-06-15T12:39:59Z</time>
      </trkpt>
      <trkpt lat="45.04607" lon="5.39552">
        <ele>1148.91</ele>
        <time>2013-06-15T12:40:16Z</time>
      </trkpt>
      <trkpt lat="45.04603" lon="5.39538">
        <ele>1150.84</ele>
        <time>2013-06-15T12:40:32Z</time>
      </trkpt>
      <trkpt lat="45.04602" lon="5.39526">
        <ele>1151.32</ele>
        <time>2013-06-15T12:40:45Z</time>
      </trkpt>
      <trkpt lat="45.04605" lon="5.39507">
        <ele>1152.28</ele>
        <time>2013-06-15T12:41:02Z</time>
      </trkpt>
      <trkpt lat="45.04605" lon="5.39493">
        <ele>1152.76</ele>
        <time>2013-06-15T12:41:17Z</time>
      </trkpt>
      <trkpt lat="45.04598" lon="5.39477">
        <ele>1152.28</ele>
        <time>2013-06-15T12:41:33Z</time>
      </trkpt>
      <trkpt lat="45.0459" lon="5.39467">
        <ele>1151.8</ele>
        <time>2013-06-15T12:41:47Z</time>
      </trkpt>
      <trkpt lat="45.04585" lon="5.39454">
        <ele>1151.32</ele>
        <time>2013-06-15T12:42:05Z</time>
      </trkpt>
      <trkpt lat="45.04587" lon="5.3943">
        <ele>1152.76</ele>
        <time>2013-06-15T12:42:24Z</time>
      </trkpt>
      <trkpt lat="45.04584" lon="5.39414">
        <ele>1152.28</ele>
        <time>2013-06-15T12:42:37Z</time>
      </trkpt>
      <trkpt lat="45.04584" lon="5.39413">
        <ele>1153.24</ele>
        <time>2013-06-15T12:42:38Z</time>
      </trkpt>
      <trkpt lat="45.04582" lon="5.394">
        <ele>1154.2</ele>
        <time>2013-06-15T12:42:51Z</time>
      </trkpt>
      <trkpt lat="45.04575" lon="5.39384">
        <ele>1154.68</ele>
        <time>2013-06-15T12:43:04Z</time>
      </trkpt>
      <trkpt lat="45.04572" lon="5.3937">
        <ele>1155.16</ele>
        <time>2013-06-15T12:43:16Z</time>
      </trkpt>
      <trkpt lat="45.04572" lon="5.3935">
        <ele>1157.08</ele>
        <time>2013-06-15T12:43:32Z</time>
      </trkpt>
      <trkpt lat="45.04573" lon="5.3933">
        <ele>1159.01</ele>
        <time>2013-06-15T12:43:49Z</time>
      </trkpt>
      <trkpt lat="45.04574" lon="5.39314">
        <ele>1159.49</ele>
        <time>2013-06-15T12:44:03Z</time>
      </trkpt>
      <trkpt lat="45.04577" lon="5.39291">
        <ele>1162.37</ele>
        <time>2013-06-15T12:44:23Z</time>
      </trkpt>
      <trkpt lat="45.04579" lon="5.39271">
        <ele>1164.29</ele>
        <time>2013-06-15T12:44:40Z</time>
      </trkpt>
      <trkpt lat="45.04582" lon="5.39253">
        <ele>1166.22</ele>
        <time>2013-06-15T12:44:57Z</time>
      </trkpt>
      <trkpt lat="45.04587" lon="5.3924">
        <ele>1168.14</ele>
        <time>2013-06-15T12:45:15Z</time>
      </trkpt>
      <trkpt lat="45.04592" lon="5.39223">
        <ele>1168.62</ele>
        <time>2013-06-15T12:45:33Z</time>
      </trkpt>
      <trkpt lat="45.04591" lon="5.39216">
        <ele>1168.62</ele>
        <time>2013-06-15T12:45:49Z</time>
      </trkpt>
      <trkpt lat="45.0459" lon="5.39215">
        <ele>1168.62</ele>
        <time>2013-06-15T12:45:56Z</time>
      </trkpt>
      <trkpt lat="45.04589" lon="5.39214">
        <ele>1168.62</ele>
        <time>2013-06-15T12:45:59Z</time>
      </trkpt>
      <trkpt lat="45.04591" lon="5.39219">
        <ele>1167.66</ele>
        <time>2013-06-15T12:46:11Z</time>
      </trkpt>
      <trkpt lat="45.0459" lon="5.3922">
        <ele>1168.14</ele>
        <time>2013-06-15T12:46:44Z</time>
      </trkpt>
      <trkpt lat="45.04591" lon="5.39219">
        <ele>1169.1</ele>
        <time>2013-06-15T12:46:58Z</time>
      </trkpt>
      <trkpt lat="45.04594" lon="5.39219">
        <ele>1169.1</ele>
        <time>2013-06-15T12:47:14Z</time>
      </trkpt>
      <trkpt lat="45.04592" lon="5.3922">
        <ele>1169.1</ele>
        <time>2013-06-15T12:47:34Z</time>
      </trkpt>
      <trkpt lat="45.04589" lon="5.39231">
        <ele>1169.1</ele>
        <time>2013-06-15T12:47:55Z</time>
      </trkpt>
      <trkpt lat="45.04583" lon="5.39249">
        <ele>1166.7</ele>
        <time>2013-06-15T12:48:12Z</time>
      </trkpt>
      <trkpt lat="45.04567" lon="5.39241">
        <ele>1165.74</ele>
        <time>2013-06-15T12:48:27Z</time>
      </trkpt>
      <trkpt lat="45.04556" lon="5.39226">
        <ele>1165.26</ele>
        <time>2013-06-15T12:48:41Z</time>
      </trkpt>
      <trkpt lat="45.0455" lon="5.39217">
        <ele>1165.74</ele>
        <time>2013-06-15T12:48:56Z</time>
      </trkpt>
      <trkpt lat="45.04537" lon="5.39203">
        <ele>1164.29</ele>
        <time>2013-06-15T12:49:12Z</time>
      </trkpt>
      <trkpt lat="45.04523" lon="5.39188">
        <ele>1164.29</ele>
        <time>2013-06-15T12:49:29Z</time>
      </trkpt>
      <trkpt lat="45.04505" lon="5.39176">
        <ele>1163.33</ele>
        <time>2013-06-15T12:49:49Z</time>
      </trkpt>
      <trkpt lat="45.04484" lon="5.39172">
        <ele>1164.77</ele>
        <time>2013-06-15T12:50:06Z</time>
      </trkpt>
      <trkpt lat="45.04469" lon="5.39183">
        <ele>1164.77</ele>
        <time>2013-06-15T12:50:24Z</time>
      </trkpt>
      <trkpt lat="45.04466" lon="5.39197">
        <ele>1165.26</ele>
        <time>2013-06-15T12:50:34Z</time>
      </trkpt>
      <trkpt lat="45.04465" lon="5.39204">
        <ele>1165.26</ele>
        <time>2013-06-15T12:50:40Z</time>
      </trkpt>
      <trkpt lat="45.04466" lon="5.39221">
        <ele>1166.7</ele>
        <time>2013-06-15T12:50:52Z</time>
      </trkpt>
      <trkpt lat="45.04462" lon="5.3924">
        <ele>1161.41</ele>
        <time>2013-06-15T12:51:04Z</time>
      </trkpt>
      <trkpt lat="45.04462" lon="5.39242">
        <ele>1169.58</ele>
        <time>2013-06-15T12:51:05Z</time>
      </trkpt>
      <trkpt lat="45.04463" lon="5.39243">
        <ele>1166.22</ele>
        <time>2013-06-15T12:51:06Z</time>
      </trkpt>
      <trkpt lat="45.0446" lon="5.39268">
        <ele>1166.7</ele>
        <time>2013-06-15T12:51:22Z</time>
      </trkpt>
      <trkpt lat="45.04458" lon="5.39291">
        <ele>1168.14</ele>
        <time>2013-06-15T12:51:38Z</time>
      </trkpt>
      <trkpt lat="45.04453" lon="5.39314">
        <ele>1169.58</ele>
        <time>2013-06-15T12:51:56Z</time>
      </trkpt>
      <trkpt lat="45.04448" lon="5.39337">
        <ele>1170.54</ele>
        <time>2013-06-15T12:52:13Z</time>
      </trkpt>
      <trkpt lat="45.04442" lon="5.39353">
        <ele>1172.47</ele>
        <time>2013-06-15T12:52:28Z</time>
      </trkpt>
      <trkpt lat="45.04433" lon="5.39372">
        <ele>1174.39</ele>
        <time>2013-06-15T12:52:44Z</time>
      </trkpt>
      <trkpt lat="45.0443" lon="5.39395">
        <ele>1174.87</ele>
        <time>2013-06-15T12:52:58Z</time>
      </trkpt>
      <trkpt lat="45.04428" lon="5.39406">
        <ele>1173.91</ele>
        <time>2013-06-15T12:53:11Z</time>
      </trkpt>
      <trkpt lat="45.04431" lon="5.39436">
        <ele>1173.43</ele>
        <time>2013-06-15T12:53:30Z</time>
      </trkpt>
      <trkpt lat="45.04435" lon="5.39452">
        <ele>1171.5</ele>
        <time>2013-06-15T12:53:45Z</time>
      </trkpt>
      <trkpt lat="45.04446" lon="5.39462">
        <ele>1169.58</ele>
        <time>2013-06-15T12:53:59Z</time>
      </trkpt>
      <trkpt lat="45.04465" lon="5.39473">
        <ele>1167.66</ele>
        <time>2013-06-15T12:54:16Z</time>
      </trkpt>
      <trkpt lat="45.04466" lon="5.39473">
        <ele>1167.66</ele>
        <time>2013-06-15T12:54:17Z</time>
      </trkpt>
      <trkpt lat="45.0448" lon="5.39477">
        <ele>1165.26</ele>
        <time>2013-06-15T12:54:33Z</time>
      </trkpt>
      <trkpt lat="45.04486" lon="5.39478">
        <ele>1164.29</ele>
        <time>2013-06-15T12:54:51Z</time>
      </trkpt>
      <trkpt lat="45.04499" lon="5.39478">
        <ele>1162.37</ele>
        <time>2013-06-15T12:55:14Z</time>
      </trkpt>
      <trkpt lat="45.04502" lon="5.39484">
        <ele>1162.37</ele>
        <time>2013-06-15T12:55:33Z</time>
      </trkpt>
      <trkpt lat="45.04508" lon="5.39504">
        <ele>1161.89</ele>
        <time>2013-06-15T12:55:51Z</time>
      </trkpt>
      <trkpt lat="45.04516" lon="5.3952">
        <ele>1159.01</ele>
        <time>2013-06-15T12:56:07Z</time>
      </trkpt>
      <trkpt lat="45.04529" lon="5.39526">
        <ele>1158.53</ele>
        <time>2013-06-15T12:56:24Z</time>
      </trkpt>
      <trkpt lat="45.04531" lon="5.3953">
        <ele>1159.01</ele>
        <time>2013-06-15T12:56:45Z</time>
      </trkpt>
      <trkpt lat="45.04533" lon="5.39533">
        <ele>1158.05</ele>
        <time>2013-06-15T12:57:13Z</time>
      </trkpt>
      <trkpt lat="45.04542" lon="5.39546">
        <ele>1157.56</ele>
        <time>2013-06-15T12:57:29Z</time>
      </trkpt>
      <trkpt lat="45.04545" lon="5.39562">
        <ele>1156.12</ele>
        <time>2013-06-15T12:57:46Z</time>
      </trkpt>
      <trkpt lat="45.04533" lon="5.39578">
        <ele>1158.53</ele>
        <time>2013-06-15T12:58:06Z</time>
      </trkpt>
      <trkpt lat="45.04531" lon="5.39579">
        <ele>1158.53</ele>
        <time>2013-06-15T12:58:25Z</time>
      </trkpt>
      <trkpt lat="45.04536" lon="5.39588">
        <ele>1158.05</ele>
        <time>2013-06-15T12:58:54Z</time>
      </trkpt>
      <trkpt lat="45.0453" lon="5.39599">
        <ele>1157.08</ele>
        <time>2013-06-15T12:59:07Z</time>
      </trkpt>
      <trkpt lat="45.04523" lon="5.39601">
        <ele>1156.12</ele>
        <time>2013-06-15T12:59:23Z</time>
      </trkpt>
      <trkpt lat="45.04515" lon="5.39601">
        <ele>1153.24</ele>
        <time>2013-06-15T12:59:36Z</time>
      </trkpt>
      <trkpt lat="45.04514" lon="5.39602">
        <ele>1150.35</ele>
        <time>2013-06-15T12:59:49Z</time>
      </trkpt>
      <trkpt lat="45.04507" lon="5.39604">
        <ele>1146.99</ele>
        <time>2013-06-15T13:00:05Z</time>
      </trkpt>
      <trkpt lat="45.04499" lon="5.39611">
        <ele>1143.63</ele>
        <time>2013-06-15T13:00:20Z</time>
      </trkpt>
      <trkpt lat="45.04501" lon="5.39622">
        <ele>1140.26</ele>
        <time>2013-06-15T13:00:32Z</time>
      </trkpt>
      <trkpt lat="45.04499" lon="5.39625">
        <ele>1137.38</ele>
        <time>2013-06-15T13:00:47Z</time>
      </trkpt>
      <trkpt lat="45.04497" lon="5.39628">
        <ele>1134.97</ele>
        <time>2013-06-15T13:00:57Z</time>
      </trkpt>
      <trkpt lat="45.04495" lon="5.39634">
        <ele>1132.57</ele>
        <time>2013-06-15T13:01:05Z</time>
      </trkpt>
      <trkpt lat="45.04493" lon="5.39642">
        <ele>1129.21</ele>
        <time>2013-06-15T13:01:18Z</time>
      </trkpt>
      <trkpt lat="45.04489" lon="5.39649">
        <ele>1126.32</ele>
        <time>2013-06-15T13:01:31Z</time>
      </trkpt>
      <trkpt lat="45.04486" lon="5.39653">
        <ele>1123.44</ele>
        <time>2013-06-15T13:01:44Z</time>
      </trkpt>
      <trkpt lat="45.04482" lon="5.39653">
        <ele>1120.07</ele>
        <time>2013-06-15T13:01:55Z</time>
      </trkpt>
      <trkpt lat="45.0447" lon="5.39663">
        <ele>1110.94</ele>
        <time>2013-06-15T13:02:41Z</time>
      </trkpt>
      <trkpt lat="45.04467" lon="5.39674">
        <ele>1108.54</ele>
        <time>2013-06-15T13:02:54Z</time>
      </trkpt>
      <trkpt lat="45.04463" lon="5.39678">
        <ele>1106.13</ele>
        <time>2013-06-15T13:03:06Z</time>
      </trkpt>
      <trkpt lat="45.04462" lon="5.39684">
        <ele>1103.73</ele>
        <time>2013-06-15T13:03:28Z</time>
      </trkpt>
      <trkpt lat="45.04463" lon="5.39697">
        <ele>1102.77</ele>
        <time>2013-06-15T13:03:45Z</time>
      </trkpt>
      <trkpt lat="45.04461" lon="5.39724">
        <ele>1099.89</ele>
        <time>2013-06-15T13:04:00Z</time>
      </trkpt>
      <trkpt lat="45.04448" lon="5.39735">
        <ele>1094.12</ele>
        <time>2013-06-15T13:04:46Z</time>
      </trkpt>
      <trkpt lat="45.04447" lon="5.39746">
        <ele>1091.23</ele>
        <time>2013-06-15T13:04:58Z</time>
      </trkpt>
      <trkpt lat="45.0444" lon="5.39748">
        <ele>1088.35</ele>
        <time>2013-06-15T13:05:10Z</time>
      </trkpt>
      <trkpt lat="45.04444" lon="5.39758">
        <ele>1084.99</ele>
        <time>2013-06-15T13:05:22Z</time>
      </trkpt>
      <trkpt lat="45.04441" lon="5.39768">
        <ele>1082.58</ele>
        <time>2013-06-15T13:05:38Z</time>
      </trkpt>
      <trkpt lat="45.04442" lon="5.39775">
        <ele>1080.18</ele>
        <time>2013-06-15T13:05:47Z</time>
      </trkpt>
      <trkpt lat="45.04442" lon="5.3978">
        <ele>1078.26</ele>
        <time>2013-06-15T13:05:52Z</time>
      </trkpt>
      <trkpt lat="45.04442" lon="5.39782">
        <ele>1077.78</ele>
        <time>2013-06-15T13:05:53Z</time>
      </trkpt>
      <trkpt lat="45.04444" lon="5.39798">
        <ele>1074.41</ele>
        <time>2013-06-15T13:06:03Z</time>
      </trkpt>
      <trkpt lat="45.04447" lon="5.39808">
        <ele>1073.45</ele>
        <time>2013-06-15T13:06:17Z</time>
      </trkpt>
      <trkpt lat="45.04448" lon="5.39812">
        <ele>1072.01</ele>
        <time>2013-06-15T13:06:37Z</time>
      </trkpt>
      <trkpt lat="45.04443" lon="5.39817">
        <ele>1070.57</ele>
        <time>2013-06-15T13:06:53Z</time>
      </trkpt>
      <trkpt lat="45.04431" lon="5.39812">
        <ele>1069.6</ele>
        <time>2013-06-15T13:07:07Z</time>
      </trkpt>
      <trkpt lat="45.04428" lon="5.39813">
        <ele>1066.24</ele>
        <time>2013-06-15T13:07:17Z</time>
      </trkpt>
      <trkpt lat="45.04426" lon="5.39823">
        <ele>1064.8</ele>
        <time>2013-06-15T13:07:32Z</time>
      </trkpt>
      <trkpt lat="45.04416" lon="5.39828">
        <ele>1063.36</ele>
        <time>2013-06-15T13:07:53Z</time>
      </trkpt>
      <trkpt lat="45.04409" lon="5.39838">
        <ele>1059.99</ele>
        <time>2013-06-15T13:08:07Z</time>
      </trkpt>
      <trkpt lat="45.04408" lon="5.39849">
        <ele>1056.63</ele>
        <time>2013-06-15T13:08:21Z</time>
      </trkpt>
      <trkpt lat="45.04399" lon="5.39858">
        <ele>1053.26</ele>
        <time>2013-06-15T13:08:37Z</time>
      </trkpt>
      <trkpt lat="45.044" lon="5.39865">
        <ele>1051.82</ele>
        <time>2013-06-15T13:08:45Z</time>
      </trkpt>
      <trkpt lat="45.04401" lon="5.39885">
        <ele>1050.86</ele>
        <time>2013-06-15T13:08:58Z</time>
      </trkpt>
      <trkpt lat="45.04401" lon="5.39889">
        <ele>1049.42</ele>
        <time>2013-06-15T13:09:02Z</time>
      </trkpt>
      <trkpt lat="45.04398" lon="5.39894">
        <ele>1045.57</ele>
        <time>2013-06-15T13:09:35Z</time>
      </trkpt>
      <trkpt lat="45.04405" lon="5.39905">
        <ele>1041.73</ele>
        <time>2013-06-15T13:09:46Z</time>
      </trkpt>
      <trkpt lat="45.04417" lon="5.39925">
        <ele>1039.32</ele>
        <time>2013-06-15T13:10:00Z</time>
      </trkpt>
      <trkpt lat="45.04424" lon="5.39942">
        <ele>1035.96</ele>
        <time>2013-06-15T13:10:12Z</time>
      </trkpt>
      <trkpt lat="45.04429" lon="5.39957">
        <ele>1033.07</ele>
        <time>2013-06-15T13:10:24Z</time>
      </trkpt>
      <trkpt lat="45.04443" lon="5.39954">
        <ele>1029.71</ele>
        <time>2013-06-15T13:10:36Z</time>
      </trkpt>
      <trkpt lat="45.04453" lon="5.3994">
        <ele>1031.63</ele>
        <time>2013-06-15T13:10:43Z</time>
      </trkpt>
      <trkpt lat="45.04466" lon="5.39934">
        <ele>1029.71</ele>
        <time>2013-06-15T13:10:55Z</time>
      </trkpt>
      <trkpt lat="45.04466" lon="5.39933">
        <ele>993.18</ele>
        <time>2013-06-15T13:14:47Z</time>
      </trkpt>
      <trkpt lat="45.0447" lon="5.39931">
        <ele>990.78</ele>
        <time>2013-06-15T13:15:01Z</time>
      </trkpt>
      <trkpt lat="45.04474" lon="5.39931">
        <ele>989.33</ele>
        <time>2013-06-15T13:15:15Z</time>
      </trkpt>
      <trkpt lat="45.04474" lon="5.39935">
        <ele>988.85</ele>
        <time>2013-06-15T13:15:28Z</time>
      </trkpt>
      <trkpt lat="45.04477" lon="5.39939">
        <ele>985.01</ele>
        <time>2013-06-15T13:15:35Z</time>
      </trkpt>
      <trkpt lat="45.0448" lon="5.3993">
        <ele>983.09</ele>
        <time>2013-06-15T13:15:44Z</time>
      </trkpt>
      <trkpt lat="45.04479" lon="5.39926">
        <ele>982.12</ele>
        <time>2013-06-15T13:15:51Z</time>
      </trkpt>
      <trkpt lat="45.04483" lon="5.39922">
        <ele>978.76</ele>
        <time>2013-06-15T13:16:02Z</time>
      </trkpt>
      <trkpt lat="45.04482" lon="5.39923">
        <ele>978.28</ele>
        <time>2013-06-15T13:16:08Z</time>
      </trkpt>
      <trkpt lat="45.04483" lon="5.39923">
        <ele>978.76</ele>
        <time>2013-06-15T13:16:29Z</time>
      </trkpt>
      <trkpt lat="45.04482" lon="5.39926">
        <ele>979.24</ele>
        <time>2013-06-15T13:16:49Z</time>
      </trkpt>
      <trkpt lat="45.04485" lon="5.39932">
        <ele>978.28</ele>
        <time>2013-06-15T13:17:17Z</time>
      </trkpt>
      <trkpt lat="45.04488" lon="5.39916">
        <ele>974.91</ele>
        <time>2013-06-15T13:17:30Z</time>
      </trkpt>
      <trkpt lat="45.0449" lon="5.39906">
        <ele>972.03</ele>
        <time>2013-06-15T13:17:45Z</time>
      </trkpt>
      <trkpt lat="45.04491" lon="5.39907">
        <ele>970.11</ele>
        <time>2013-06-15T13:17:54Z</time>
      </trkpt>
      <trkpt lat="45.04494" lon="5.39902">
        <ele>966.74</ele>
        <time>2013-06-15T13:18:04Z</time>
      </trkpt>
      <trkpt lat="45.04498" lon="5.39899">
        <ele>963.86</ele>
        <time>2013-06-15T13:18:19Z</time>
      </trkpt>
      <trkpt lat="45.04503" lon="5.39893">
        <ele>960.98</ele>
        <time>2013-06-15T13:18:33Z</time>
      </trkpt>
      <trkpt lat="45.04511" lon="5.39886">
        <ele>957.13</ele>
        <time>2013-06-15T13:18:46Z</time>
      </trkpt>
      <trkpt lat="45.04513" lon="5.39881">
        <ele>953.77</ele>
        <time>2013-06-15T13:18:56Z</time>
      </trkpt>
      <trkpt lat="45.04514" lon="5.39874">
        <ele>951.84</ele>
        <time>2013-06-15T13:19:15Z</time>
      </trkpt>
      <trkpt lat="45.04519" lon="5.39868">
        <ele>948.96</ele>
        <time>2013-06-15T13:19:32Z</time>
      </trkpt>
      <trkpt lat="45.04522" lon="5.39865">
        <ele>948</ele>
        <time>2013-06-15T13:19:45Z</time>
      </trkpt>
      <trkpt lat="45.04526" lon="5.39866">
        <ele>944.63</ele>
        <time>2013-06-15T13:19:59Z</time>
      </trkpt>
      <trkpt lat="45.04522" lon="5.39865">
        <ele>944.63</ele>
        <time>2013-06-15T13:20:19Z</time>
      </trkpt>
      <trkpt lat="45.04525" lon="5.39864">
        <ele>943.19</ele>
        <time>2013-06-15T13:21:26Z</time>
      </trkpt>
      <trkpt lat="45.04527" lon="5.39865">
        <ele>944.15</ele>
        <time>2013-06-15T13:21:58Z</time>
      </trkpt>
      <trkpt lat="45.04531" lon="5.39863">
        <ele>943.67</ele>
        <time>2013-06-15T13:22:12Z</time>
      </trkpt>
      <trkpt lat="45.04525" lon="5.39866">
        <ele>944.15</ele>
        <time>2013-06-15T13:22:40Z</time>
      </trkpt>
      <trkpt lat="45.04524" lon="5.39868">
        <ele>943.19</ele>
        <time>2013-06-15T13:23:24Z</time>
      </trkpt>
      <trkpt lat="45.04529" lon="5.39865">
        <ele>940.31</ele>
        <time>2013-06-15T13:23:39Z</time>
      </trkpt>
      <trkpt lat="45.04539" lon="5.39857">
        <ele>936.94</ele>
        <time>2013-06-15T13:23:56Z</time>
      </trkpt>
      <trkpt lat="45.04547" lon="5.39866">
        <ele>933.58</ele>
        <time>2013-06-15T13:24:10Z</time>
      </trkpt>
      <trkpt lat="45.04548" lon="5.3987">
        <ele>929.25</ele>
        <time>2013-06-15T13:24:22Z</time>
      </trkpt>
      <trkpt lat="45.04547" lon="5.39862">
        <ele>927.81</ele>
        <time>2013-06-15T13:24:46Z</time>
      </trkpt>
      <trkpt lat="45.04551" lon="5.39864">
        <ele>924.45</ele>
        <time>2013-06-15T13:25:00Z</time>
      </trkpt>
      <trkpt lat="45.04551" lon="5.39864">
        <ele>923.96</ele>
        <time>2013-06-15T13:25:02Z</time>
      </trkpt>
      <trkpt lat="45.04555" lon="5.39866">
        <ele>922.04</ele>
        <time>2013-06-15T13:25:18Z</time>
      </trkpt>
      <trkpt lat="45.04557" lon="5.39868">
        <ele>921.08</ele>
        <time>2013-06-15T13:25:30Z</time>
      </trkpt>
      <trkpt lat="45.04557" lon="5.39863">
        <ele>918.2</ele>
        <time>2013-06-15T13:25:46Z</time>
      </trkpt>
      <trkpt lat="45.0456" lon="5.39863">
        <ele>917.24</ele>
        <time>2013-06-15T13:25:50Z</time>
      </trkpt>
      <trkpt lat="45.0456" lon="5.39862">
        <ele>914.83</ele>
        <time>2013-06-15T13:25:58Z</time>
      </trkpt>
      <trkpt lat="45.04566" lon="5.39862">
        <ele>913.39</ele>
        <time>2013-06-15T13:26:15Z</time>
      </trkpt>
      <trkpt lat="45.04573" lon="5.39863">
        <ele>911.47</ele>
        <time>2013-06-15T13:26:31Z</time>
      </trkpt>
      <trkpt lat="45.04574" lon="5.39857">
        <ele>908.58</ele>
        <time>2013-06-15T13:26:44Z</time>
      </trkpt>
      <trkpt lat="45.04576" lon="5.39849">
        <ele>905.22</ele>
        <time>2013-06-15T13:26:56Z</time>
      </trkpt>
      <trkpt lat="45.04578" lon="5.3985">
        <ele>904.26</ele>
        <time>2013-06-15T13:27:00Z</time>
      </trkpt>
      <trkpt lat="45.04583" lon="5.39855">
        <ele>901.37</ele>
        <time>2013-06-15T13:27:15Z</time>
      </trkpt>
      <trkpt lat="45.04593" lon="5.39864">
        <ele>898.97</ele>
        <time>2013-06-15T13:27:44Z</time>
      </trkpt>
      <trkpt lat="45.04592" lon="5.39859">
        <ele>894.64</ele>
        <time>2013-06-15T13:28:05Z</time>
      </trkpt>
      <trkpt lat="45.04592" lon="5.39858">
        <ele>898.49</ele>
        <time>2013-06-15T13:28:06Z</time>
      </trkpt>
      <trkpt lat="45.04596" lon="5.39854">
        <ele>894.64</ele>
        <time>2013-06-15T13:28:23Z</time>
      </trkpt>
      <trkpt lat="45.04597" lon="5.39855">
        <ele>893.68</ele>
        <time>2013-06-15T13:28:29Z</time>
      </trkpt>
      <trkpt lat="45.04602" lon="5.39857">
        <ele>890.8</ele>
        <time>2013-06-15T13:28:38Z</time>
      </trkpt>
      <trkpt lat="45.04607" lon="5.39856">
        <ele>887.91</ele>
        <time>2013-06-15T13:28:52Z</time>
      </trkpt>
      <trkpt lat="45.04607" lon="5.39856">
        <ele>885.51</ele>
        <time>2013-06-15T13:28:59Z</time>
      </trkpt>
      <trkpt lat="45.04613" lon="5.3985">
        <ele>881.67</ele>
        <time>2013-06-15T13:29:14Z</time>
      </trkpt>
      <trkpt lat="45.04618" lon="5.3985">
        <ele>878.78</ele>
        <time>2013-06-15T13:29:28Z</time>
      </trkpt>
      <trkpt lat="45.04623" lon="5.39857">
        <ele>876.38</ele>
        <time>2013-06-15T13:29:39Z</time>
      </trkpt>
      <trkpt lat="45.04628" lon="5.39861">
        <ele>873.5</ele>
        <time>2013-06-15T13:29:51Z</time>
      </trkpt>
      <trkpt lat="45.04633" lon="5.39866">
        <ele>870.13</ele>
        <time>2013-06-15T13:30:02Z</time>
      </trkpt>
      <trkpt lat="45.04634" lon="5.39865">
        <ele>869.17</ele>
        <time>2013-06-15T13:30:26Z</time>
      </trkpt>
      <trkpt lat="45.04638" lon="5.39879">
        <ele>865.8</ele>
        <time>2013-06-15T13:30:43Z</time>
      </trkpt>
      <trkpt lat="45.04644" lon="5.39878">
        <ele>865.32</ele>
        <time>2013-06-15T13:31:05Z</time>
      </trkpt>
      <trkpt lat="45.04643" lon="5.39879">
        <ele>857.15</ele>
        <time>2013-06-15T13:35:12Z</time>
      </trkpt>
      <trkpt lat="45.04648" lon="5.39875">
        <ele>854.27</ele>
        <time>2013-06-15T13:35:23Z</time>
      </trkpt>
      <trkpt lat="45.04651" lon="5.39864">
        <ele>852.83</ele>
        <time>2013-06-15T13:35:37Z</time>
      </trkpt>
      <trkpt lat="45.04658" lon="5.39853">
        <ele>849.46</ele>
        <time>2013-06-15T13:35:55Z</time>
      </trkpt>
      <trkpt lat="45.04666" lon="5.39852">
        <ele>846.58</ele>
        <time>2013-06-15T13:36:10Z</time>
      </trkpt>
      <trkpt lat="45.04671" lon="5.39856">
        <ele>843.21</ele>
        <time>2013-06-15T13:36:22Z</time>
      </trkpt>
      <trkpt lat="45.04676" lon="5.39852">
        <ele>840.33</ele>
        <time>2013-06-15T13:36:33Z</time>
      </trkpt>
      <trkpt lat="45.0468" lon="5.39853">
        <ele>837.45</ele>
        <time>2013-06-15T13:36:45Z</time>
      </trkpt>
      <trkpt lat="45.04686" lon="5.39861">
        <ele>834.08</ele>
        <time>2013-06-15T13:37:01Z</time>
      </trkpt>
      <trkpt lat="45.04687" lon="5.3987">
        <ele>830.72</ele>
        <time>2013-06-15T13:37:16Z</time>
      </trkpt>
      <trkpt lat="45.04691" lon="5.39874">
        <ele>828.31</ele>
        <time>2013-06-15T13:37:32Z</time>
      </trkpt>
      <trkpt lat="45.04701" lon="5.39873">
        <ele>828.31</ele>
        <time>2013-06-15T13:37:55Z</time>
      </trkpt>
      <trkpt lat="45.04705" lon="5.39869">
        <ele>825.43</ele>
        <time>2013-06-15T13:38:13Z</time>
      </trkpt>
      <trkpt lat="45.04705" lon="5.39864">
        <ele>822.55</ele>
        <time>2013-06-15T13:38:20Z</time>
      </trkpt>
      <trkpt lat="45.04709" lon="5.39853">
        <ele>820.62</ele>
        <time>2013-06-15T13:38:32Z</time>
      </trkpt>
      <trkpt lat="45.04715" lon="5.39846">
        <ele>818.22</ele>
        <time>2013-06-15T13:38:48Z</time>
      </trkpt>
      <trkpt lat="45.0472" lon="5.39843">
        <ele>815.34</ele>
        <time>2013-06-15T13:38:58Z</time>
      </trkpt>
      <trkpt lat="45.04726" lon="5.3984">
        <ele>811.97</ele>
        <time>2013-06-15T13:39:10Z</time>
      </trkpt>
      <trkpt lat="45.0473" lon="5.39839">
        <ele>809.09</ele>
        <time>2013-06-15T13:39:25Z</time>
      </trkpt>
      <trkpt lat="45.04733" lon="5.39844">
        <ele>808.61</ele>
        <time>2013-06-15T13:39:41Z</time>
      </trkpt>
      <trkpt lat="45.04733" lon="5.39842">
        <ele>808.13</ele>
        <time>2013-06-15T13:39:57Z</time>
      </trkpt>
      <trkpt lat="45.04736" lon="5.39841">
        <ele>808.61</ele>
        <time>2013-06-15T13:40:11Z</time>
      </trkpt>
      <trkpt lat="45.04737" lon="5.39847">
        <ele>806.2</ele>
        <time>2013-06-15T13:40:29Z</time>
      </trkpt>
      <trkpt lat="45.04738" lon="5.39846">
        <ele>804.76</ele>
        <time>2013-06-15T13:40:32Z</time>
      </trkpt>
      <trkpt lat="45.04742" lon="5.39845">
        <ele>801.88</ele>
        <time>2013-06-15T13:40:45Z</time>
      </trkpt>
      <trkpt lat="45.04743" lon="5.39851">
        <ele>798.51</ele>
        <time>2013-06-15T13:40:57Z</time>
      </trkpt>
      <trkpt lat="45.04749" lon="5.39847">
        <ele>795.63</ele>
        <time>2013-06-15T13:41:11Z</time>
      </trkpt>
      <trkpt lat="45.04755" lon="5.39846">
        <ele>792.74</ele>
        <time>2013-06-15T13:41:20Z</time>
      </trkpt>
      <trkpt lat="45.04759" lon="5.39854">
        <ele>789.86</ele>
        <time>2013-06-15T13:41:31Z</time>
      </trkpt>
      <trkpt lat="45.04762" lon="5.3986">
        <ele>786.5</ele>
        <time>2013-06-15T13:41:43Z</time>
      </trkpt>
      <trkpt lat="45.04768" lon="5.39864">
        <ele>783.13</ele>
        <time>2013-06-15T13:41:55Z</time>
      </trkpt>
      <trkpt lat="45.04769" lon="5.39872">
        <ele>780.73</ele>
        <time>2013-06-15T13:42:12Z</time>
      </trkpt>
      <trkpt lat="45.04775" lon="5.39876">
        <ele>777.84</ele>
        <time>2013-06-15T13:42:27Z</time>
      </trkpt>
      <trkpt lat="45.04775" lon="5.39876">
        <ele>776.88</ele>
        <time>2013-06-15T13:42:28Z</time>
      </trkpt>
      <trkpt lat="45.04775" lon="5.39873">
        <ele>775.44</ele>
        <time>2013-06-15T13:42:32Z</time>
      </trkpt>
      <trkpt lat="45.04778" lon="5.39875">
        <ele>774.96</ele>
        <time>2013-06-15T13:42:51Z</time>
      </trkpt>
      <trkpt lat="45.04777" lon="5.39884">
        <ele>774.48</ele>
        <time>2013-06-15T13:43:12Z</time>
      </trkpt>
      <trkpt lat="45.0478" lon="5.39891">
        <ele>773.04</ele>
        <time>2013-06-15T13:43:28Z</time>
      </trkpt>
      <trkpt lat="45.04784" lon="5.39902">
        <ele>769.67</ele>
        <time>2013-06-15T13:43:40Z</time>
      </trkpt>
      <trkpt lat="45.04788" lon="5.39897">
        <ele>766.79</ele>
        <time>2013-06-15T13:43:51Z</time>
      </trkpt>
      <trkpt lat="45.04794" lon="5.39889">
        <ele>763.42</ele>
        <time>2013-06-15T13:44:06Z</time>
      </trkpt>
      <trkpt lat="45.0479" lon="5.39895">
        <ele>761.98</ele>
        <time>2013-06-15T13:44:36Z</time>
      </trkpt>
      <trkpt lat="45.04801" lon="5.39904">
        <ele>758.62</ele>
        <time>2013-06-15T13:44:51Z</time>
      </trkpt>
      <trkpt lat="45.04809" lon="5.39906">
        <ele>755.25</ele>
        <time>2013-06-15T13:45:05Z</time>
      </trkpt>
      <trkpt lat="45.0481" lon="5.39905">
        <ele>755.25</ele>
        <time>2013-06-15T13:45:06Z</time>
      </trkpt>
      <trkpt lat="45.04811" lon="5.39911">
        <ele>753.33</ele>
        <time>2013-06-15T13:45:20Z</time>
      </trkpt>
      <trkpt lat="45.04813" lon="5.39923">
        <ele>750.45</ele>
        <time>2013-06-15T13:45:32Z</time>
      </trkpt>
      <trkpt lat="45.04821" lon="5.3992">
        <ele>747.08</ele>
        <time>2013-06-15T13:45:49Z</time>
      </trkpt>
      <trkpt lat="45.04828" lon="5.39911">
        <ele>744.2</ele>
        <time>2013-06-15T13:46:05Z</time>
      </trkpt>
      <trkpt lat="45.04832" lon="5.3992">
        <ele>740.83</ele>
        <time>2013-06-15T13:46:16Z</time>
      </trkpt>
      <trkpt lat="45.04835" lon="5.39932">
        <ele>737.47</ele>
        <time>2013-06-15T13:46:28Z</time>
      </trkpt>
      <trkpt lat="45.04837" lon="5.39935">
        <ele>735.07</ele>
        <time>2013-06-15T13:46:46Z</time>
      </trkpt>
      <trkpt lat="45.04839" lon="5.39943">
        <ele>733.14</ele>
        <time>2013-06-15T13:47:01Z</time>
      </trkpt>
      <trkpt lat="45.04848" lon="5.39938">
        <ele>730.26</ele>
        <time>2013-06-15T13:47:19Z</time>
      </trkpt>
      <trkpt lat="45.04848" lon="5.39941">
        <ele>729.3</ele>
        <time>2013-06-15T13:47:36Z</time>
      </trkpt>
      <trkpt lat="45.04849" lon="5.39942">
        <ele>729.78</ele>
        <time>2013-06-15T13:47:55Z</time>
      </trkpt>
      <trkpt lat="45.04849" lon="5.39944">
        <ele>729.3</ele>
        <time>2013-06-15T13:48:22Z</time>
      </trkpt>
      <trkpt lat="45.04847" lon="5.39938">
        <ele>728.82</ele>
        <time>2013-06-15T13:48:44Z</time>
      </trkpt>
      <trkpt lat="45.04851" lon="5.39949">
        <ele>729.3</ele>
        <time>2013-06-15T13:49:10Z</time>
      </trkpt>
      <trkpt lat="45.04853" lon="5.3995">
        <ele>729.3</ele>
        <time>2013-06-15T13:49:38Z</time>
      </trkpt>
      <trkpt lat="45.04854" lon="5.3993">
        <ele>727.37</ele>
        <time>2013-06-15T13:49:51Z</time>
      </trkpt>
      <trkpt lat="45.04858" lon="5.39938">
        <ele>724.01</ele>
        <time>2013-06-15T13:50:05Z</time>
      </trkpt>
      <trkpt lat="45.04866" lon="5.39938">
        <ele>721.13</ele>
        <time>2013-06-15T13:50:20Z</time>
      </trkpt>
      <trkpt lat="45.04868" lon="5.39943">
        <ele>719.2</ele>
        <time>2013-06-15T13:50:33Z</time>
      </trkpt>
      <trkpt lat="45.0487" lon="5.39953">
        <ele>717.76</ele>
        <time>2013-06-15T13:50:49Z</time>
      </trkpt>
      <trkpt lat="45.04869" lon="5.39966">
        <ele>714.88</ele>
        <time>2013-06-15T13:51:02Z</time>
      </trkpt>
      <trkpt lat="45.04876" lon="5.39966">
        <ele>711.51</ele>
        <time>2013-06-15T13:51:14Z</time>
      </trkpt>
      <trkpt lat="45.04883" lon="5.39966">
        <ele>708.15</ele>
        <time>2013-06-15T13:51:26Z</time>
      </trkpt>
      <trkpt lat="45.04884" lon="5.39976">
        <ele>705.75</ele>
        <time>2013-06-15T13:51:42Z</time>
      </trkpt>
      <trkpt lat="45.04889" lon="5.39983">
        <ele>702.86</ele>
        <time>2013-06-15T13:51:56Z</time>
      </trkpt>
      <trkpt lat="45.04888" lon="5.39986">
        <ele>701.42</ele>
        <time>2013-06-15T13:52:15Z</time>
      </trkpt>
      <trkpt lat="45.04887" lon="5.39986">
        <ele>701.9</ele>
        <time>2013-06-15T13:52:54Z</time>
      </trkpt>
      <trkpt lat="45.04888" lon="5.39995">
        <ele>702.38</ele>
        <time>2013-06-15T13:53:09Z</time>
      </trkpt>
      <trkpt lat="45.04892" lon="5.39986">
        <ele>701.42</ele>
        <time>2013-06-15T13:53:32Z</time>
      </trkpt>
      <trkpt lat="45.04897" lon="5.39988">
        <ele>698.53</ele>
        <time>2013-06-15T13:53:46Z</time>
      </trkpt>
      <trkpt lat="45.04901" lon="5.39994">
        <ele>697.57</ele>
        <time>2013-06-15T13:54:04Z</time>
      </trkpt>
      <trkpt lat="45.04906" lon="5.39985">
        <ele>695.65</ele>
        <time>2013-06-15T13:54:18Z</time>
      </trkpt>
      <trkpt lat="45.04907" lon="5.39982">
        <ele>694.21</ele>
        <time>2013-06-15T13:54:24Z</time>
      </trkpt>
      <trkpt lat="45.04914" lon="5.39964">
        <ele>690.84</ele>
        <time>2013-06-15T13:54:39Z</time>
      </trkpt>
      <trkpt lat="45.04918" lon="5.39954">
        <ele>689.4</ele>
        <time>2013-06-15T13:54:51Z</time>
      </trkpt>
      <trkpt lat="45.04925" lon="5.39946">
        <ele>688.44</ele>
        <time>2013-06-15T13:55:05Z</time>
      </trkpt>
      <trkpt lat="45.0493" lon="5.39941">
        <ele>685.08</ele>
        <time>2013-06-15T13:55:14Z</time>
      </trkpt>
      <trkpt lat="45.04928" lon="5.3993">
        <ele>684.6</ele>
        <time>2013-06-15T13:55:26Z</time>
      </trkpt>
      <trkpt lat="45.0493" lon="5.39929">
        <ele>684.6</ele>
        <time>2013-06-15T13:55:41Z</time>
      </trkpt>
      <trkpt lat="45.04934" lon="5.39916">
        <ele>684.12</ele>
        <time>2013-06-15T13:55:51Z</time>
      </trkpt>
      <trkpt lat="45.04945" lon="5.39893">
        <ele>683.15</ele>
        <time>2013-06-15T13:56:10Z</time>
      </trkpt>
      <trkpt lat="45.04953" lon="5.39872">
        <ele>681.71</ele>
        <time>2013-06-15T13:56:26Z</time>
      </trkpt>
      <trkpt lat="45.0496" lon="5.39851">
        <ele>680.27</ele>
        <time>2013-06-15T13:56:41Z</time>
      </trkpt>
      <trkpt lat="45.04968" lon="5.39833">
        <ele>679.31</ele>
        <time>2013-06-15T13:56:58Z</time>
      </trkpt>
      <trkpt lat="45.04976" lon="5.39822">
        <ele>678.83</ele>
        <time>2013-06-15T13:57:14Z</time>
      </trkpt>
      <trkpt lat="45.04986" lon="5.39812">
        <ele>677.87</ele>
        <time>2013-06-15T13:57:27Z</time>
      </trkpt>
      <trkpt lat="45.04995" lon="5.39796">
        <ele>676.91</ele>
        <time>2013-06-15T13:57:43Z</time>
      </trkpt>
      <trkpt lat="45.05002" lon="5.39778">
        <ele>675.46</ele>
        <time>2013-06-15T13:57:57Z</time>
      </trkpt>
      <trkpt lat="45.04993" lon="5.39774">
        <ele>675.46</ele>
        <time>2013-06-15T13:58:14Z</time>
      </trkpt>
      <trkpt lat="45.05001" lon="5.39763">
        <ele>674.98</ele>
        <time>2013-06-15T13:58:30Z</time>
      </trkpt>
      <trkpt lat="45.05011" lon="5.39742">
        <ele>673.54</ele>
        <time>2013-06-15T13:58:44Z</time>
      </trkpt>
      <trkpt lat="45.05012" lon="5.39739">
        <ele>673.06</ele>
        <time>2013-06-15T13:58:46Z</time>
      </trkpt>
      <trkpt lat="45.05019" lon="5.39727">
        <ele>672.1</ele>
        <time>2013-06-15T13:58:54Z</time>
      </trkpt>
      <trkpt lat="45.05021" lon="5.39717">
        <ele>671.62</ele>
        <time>2013-06-15T13:59:01Z</time>
      </trkpt>
      <trkpt lat="45.05024" lon="5.39696">
        <ele>671.14</ele>
        <time>2013-06-15T13:59:14Z</time>
      </trkpt>
      <trkpt lat="45.05031" lon="5.39672">
        <ele>671.14</ele>
        <time>2013-06-15T13:59:30Z</time>
      </trkpt>
      <trkpt lat="45.05033" lon="5.39663">
        <ele>671.14</ele>
        <time>2013-06-15T13:59:35Z</time>
      </trkpt>
      <trkpt lat="45.05033" lon="5.39646">
        <ele>670.18</ele>
        <time>2013-06-15T13:59:48Z</time>
      </trkpt>
      <trkpt lat="45.0504" lon="5.39629">
        <ele>668.73</ele>
        <time>2013-06-15T14:00:02Z</time>
      </trkpt>
      <trkpt lat="45.0505" lon="5.39612">
        <ele>667.29</ele>
        <time>2013-06-15T14:00:14Z</time>
      </trkpt>
      <trkpt lat="45.05061" lon="5.39591">
        <ele>666.81</ele>
        <time>2013-06-15T14:00:29Z</time>
      </trkpt>
      <trkpt lat="45.05071" lon="5.39571">
        <ele>666.33</ele>
        <time>2013-06-15T14:00:44Z</time>
      </trkpt>
      <trkpt lat="45.05081" lon="5.39553">
        <ele>665.37</ele>
        <time>2013-06-15T14:00:58Z</time>
      </trkpt>
      <trkpt lat="45.05086" lon="5.39545">
        <ele>665.37</ele>
        <time>2013-06-15T14:01:05Z</time>
      </trkpt>
      <trkpt lat="45.0509" lon="5.39532">
        <ele>665.85</ele>
        <time>2013-06-15T14:01:16Z</time>
      </trkpt>
      <trkpt lat="45.05097" lon="5.3951">
        <ele>664.89</ele>
        <time>2013-06-15T14:01:30Z</time>
      </trkpt>
      <trkpt lat="45.05112" lon="5.39487">
        <ele>663.93</ele>
        <time>2013-06-15T14:01:47Z</time>
      </trkpt>
      <trkpt lat="45.05116" lon="5.3948">
        <ele>663.93</ele>
        <time>2013-06-15T14:02:01Z</time>
      </trkpt>
      <trkpt lat="45.05111" lon="5.3948">
        <ele>663.45</ele>
        <time>2013-06-15T14:02:17Z</time>
      </trkpt>
      <trkpt lat="45.05124" lon="5.3947">
        <ele>663.45</ele>
        <time>2013-06-15T14:02:31Z</time>
      </trkpt>
      <trkpt lat="45.05139" lon="5.39458">
        <ele>662.97</ele>
        <time>2013-06-15T14:02:45Z</time>
      </trkpt>
      <trkpt lat="45.05153" lon="5.39447">
        <ele>662.49</ele>
        <time>2013-06-15T14:03:00Z</time>
      </trkpt>
      <trkpt lat="45.05169" lon="5.39432">
        <ele>661.04</ele>
        <time>2013-06-15T14:03:16Z</time>
      </trkpt>
      <trkpt lat="45.05183" lon="5.39419">
        <ele>660.56</ele>
        <time>2013-06-15T14:03:32Z</time>
      </trkpt>
      <trkpt lat="45.05192" lon="5.39414">
        <ele>659.12</ele>
        <time>2013-06-15T14:03:41Z</time>
      </trkpt>
      <trkpt lat="45.0521" lon="5.39407">
        <ele>658.16</ele>
        <time>2013-06-15T14:03:57Z</time>
      </trkpt>
      <trkpt lat="45.05226" lon="5.39394">
        <ele>656.24</ele>
        <time>2013-06-15T14:04:13Z</time>
      </trkpt>
      <trkpt lat="45.05241" lon="5.39379">
        <ele>655.28</ele>
        <time>2013-06-15T14:04:28Z</time>
      </trkpt>
      <trkpt lat="45.05243" lon="5.39376">
        <ele>655.28</ele>
        <time>2013-06-15T14:04:31Z</time>
      </trkpt>
      <trkpt lat="45.05256" lon="5.39362">
        <ele>653.83</ele>
        <time>2013-06-15T14:04:47Z</time>
      </trkpt>
      <trkpt lat="45.0527" lon="5.39351">
        <ele>652.87</ele>
        <time>2013-06-15T14:05:01Z</time>
      </trkpt>
      <trkpt lat="45.05286" lon="5.3934">
        <ele>651.91</ele>
        <time>2013-06-15T14:05:17Z</time>
      </trkpt>
      <trkpt lat="45.05298" lon="5.3933">
        <ele>650.95</ele>
        <time>2013-06-15T14:05:28Z</time>
      </trkpt>
      <trkpt lat="45.05313" lon="5.39317">
        <ele>649.51</ele>
        <time>2013-06-15T14:05:43Z</time>
      </trkpt>
      <trkpt lat="45.05329" lon="5.39306">
        <ele>648.07</ele>
        <time>2013-06-15T14:05:59Z</time>
      </trkpt>
      <trkpt lat="45.05349" lon="5.39297">
        <ele>647.1</ele>
        <time>2013-06-15T14:06:17Z</time>
      </trkpt>
      <trkpt lat="45.05362" lon="5.39291">
        <ele>646.14</ele>
        <time>2013-06-15T14:06:30Z</time>
      </trkpt>
      <trkpt lat="45.05372" lon="5.39288">
        <ele>645.66</ele>
        <time>2013-06-15T14:06:37Z</time>
      </trkpt>
      <trkpt lat="45.05392" lon="5.39281">
        <ele>644.22</ele>
        <time>2013-06-15T14:06:55Z</time>
      </trkpt>
      <trkpt lat="45.05405" lon="5.39276">
        <ele>643.26</ele>
        <time>2013-06-15T14:07:09Z</time>
      </trkpt>
      <trkpt lat="45.05417" lon="5.39272">
        <ele>642.78</ele>
        <time>2013-06-15T14:07:24Z</time>
      </trkpt>
      <trkpt lat="45.05435" lon="5.39272">
        <ele>642.3</ele>
        <time>2013-06-15T14:07:38Z</time>
      </trkpt>
      <trkpt lat="45.05453" lon="5.39271">
        <ele>640.86</ele>
        <time>2013-06-15T14:07:53Z</time>
      </trkpt>
      <trkpt lat="45.0547" lon="5.39273">
        <ele>640.86</ele>
        <time>2013-06-15T14:08:08Z</time>
      </trkpt>
      <trkpt lat="45.05489" lon="5.39269">
        <ele>639.41</ele>
        <time>2013-06-15T14:08:25Z</time>
      </trkpt>
      <trkpt lat="45.05496" lon="5.39265">
        <ele>639.89</ele>
        <time>2013-06-15T14:08:33Z</time>
      </trkpt>
      <trkpt lat="45.055" lon="5.39259">
        <ele>639.41</ele>
        <time>2013-06-15T14:08:38Z</time>
      </trkpt>
      <trkpt lat="45.05514" lon="5.39251">
        <ele>639.89</ele>
        <time>2013-06-15T14:08:54Z</time>
      </trkpt>
      <trkpt lat="45.05518" lon="5.39248">
        <ele>639.89</ele>
        <time>2013-06-15T14:08:59Z</time>
      </trkpt>
      <trkpt lat="45.05532" lon="5.39236">
        <ele>639.41</ele>
        <time>2013-06-15T14:09:15Z</time>
      </trkpt>
      <trkpt lat="45.0555" lon="5.39221">
        <ele>638.93</ele>
        <time>2013-06-15T14:09:32Z</time>
      </trkpt>
      <trkpt lat="45.05565" lon="5.39212">
        <ele>638.45</ele>
        <time>2013-06-15T14:09:47Z</time>
      </trkpt>
      <trkpt lat="45.05582" lon="5.39203">
        <ele>637.97</ele>
        <time>2013-06-15T14:10:03Z</time>
      </trkpt>
      <trkpt lat="45.05596" lon="5.39192">
        <ele>637.01</ele>
        <time>2013-06-15T14:10:19Z</time>
      </trkpt>
      <trkpt lat="45.05613" lon="5.39182">
        <ele>637.49</ele>
        <time>2013-06-15T14:10:35Z</time>
      </trkpt>
      <trkpt lat="45.05633" lon="5.39174">
        <ele>636.05</ele>
        <time>2013-06-15T14:10:52Z</time>
      </trkpt>
      <trkpt lat="45.0565" lon="5.39168">
        <ele>635.57</ele>
        <time>2013-06-15T14:11:07Z</time>
      </trkpt>
      <trkpt lat="45.05668" lon="5.39162">
        <ele>634.13</ele>
        <time>2013-06-15T14:11:23Z</time>
      </trkpt>
      <trkpt lat="45.05685" lon="5.39161">
        <ele>633.17</ele>
        <time>2013-06-15T14:11:39Z</time>
      </trkpt>
      <trkpt lat="45.05701" lon="5.39158">
        <ele>631.72</ele>
        <time>2013-06-15T14:11:53Z</time>
      </trkpt>
      <trkpt lat="45.0572" lon="5.39157">
        <ele>630.28</ele>
        <time>2013-06-15T14:12:08Z</time>
      </trkpt>
      <trkpt lat="45.05736" lon="5.39155">
        <ele>628.84</ele>
        <time>2013-06-15T14:12:21Z</time>
      </trkpt>
      <trkpt lat="45.05752" lon="5.39151">
        <ele>626.92</ele>
        <time>2013-06-15T14:12:36Z</time>
      </trkpt>
      <trkpt lat="45.05767" lon="5.3915">
        <ele>624.99</ele>
        <time>2013-06-15T14:12:50Z</time>
      </trkpt>
      <trkpt lat="45.05789" lon="5.39148">
        <ele>624.51</ele>
        <time>2013-06-15T14:13:06Z</time>
      </trkpt>
      <trkpt lat="45.05806" lon="5.39145">
        <ele>623.07</ele>
        <time>2013-06-15T14:13:21Z</time>
      </trkpt>
      <trkpt lat="45.0582" lon="5.39142">
        <ele>621.15</ele>
        <time>2013-06-15T14:13:35Z</time>
      </trkpt>
      <trkpt lat="45.05843" lon="5.39139">
        <ele>620.67</ele>
        <time>2013-06-15T14:13:50Z</time>
      </trkpt>
      <trkpt lat="45.05853" lon="5.39125">
        <ele>618.75</ele>
        <time>2013-06-15T14:14:04Z</time>
      </trkpt>
      <trkpt lat="45.05855" lon="5.39117">
        <ele>617.78</ele>
        <time>2013-06-15T14:14:09Z</time>
      </trkpt>
      <trkpt lat="45.05862" lon="5.39097">
        <ele>616.34</ele>
        <time>2013-06-15T14:14:22Z</time>
      </trkpt>
      <trkpt lat="45.05864" lon="5.39089">
        <ele>615.86</ele>
        <time>2013-06-15T14:14:27Z</time>
      </trkpt>
      <trkpt lat="45.05873" lon="5.3907">
        <ele>614.42</ele>
        <time>2013-06-15T14:14:41Z</time>
      </trkpt>
      <trkpt lat="45.05891" lon="5.39047">
        <ele>614.42</ele>
        <time>2013-06-15T14:14:57Z</time>
      </trkpt>
      <trkpt lat="45.05904" lon="5.39027">
        <ele>613.94</ele>
        <time>2013-06-15T14:15:13Z</time>
      </trkpt>
      <trkpt lat="45.05915" lon="5.39007">
        <ele>612.5</ele>
        <time>2013-06-15T14:15:28Z</time>
      </trkpt>
      <trkpt lat="45.05928" lon="5.38989">
        <ele>612.5</ele>
        <time>2013-06-15T14:15:43Z</time>
      </trkpt>
      <trkpt lat="45.0594" lon="5.3897">
        <ele>612.5</ele>
        <time>2013-06-15T14:16:01Z</time>
      </trkpt>
      <trkpt lat="45.05947" lon="5.38961">
        <ele>612.02</ele>
        <time>2013-06-15T14:16:20Z</time>
      </trkpt>
      <trkpt lat="45.05957" lon="5.38946">
        <ele>612.02</ele>
        <time>2013-06-15T14:16:35Z</time>
      </trkpt>
      <trkpt lat="45.05961" lon="5.38938">
        <ele>612.5</ele>
        <time>2013-06-15T14:16:48Z</time>
      </trkpt>
      <trkpt lat="45.05971" lon="5.38929">
        <ele>612.5</ele>
        <time>2013-06-15T14:17:03Z</time>
      </trkpt>
      <trkpt lat="45.0598" lon="5.38914">
        <ele>613.94</ele>
        <time>2013-06-15T14:17:18Z</time>
      </trkpt>
      <trkpt lat="45.05991" lon="5.389">
        <ele>615.38</ele>
        <time>2013-06-15T14:17:33Z</time>
      </trkpt>
      <trkpt lat="45.06003" lon="5.38884">
        <ele>616.82</ele>
        <time>2013-06-15T14:17:49Z</time>
      </trkpt>
      <trkpt lat="45.06015" lon="5.38866">
        <ele>617.3</ele>
        <time>2013-06-15T14:18:05Z</time>
      </trkpt>
      <trkpt lat="45.06023" lon="5.38848">
        <ele>619.23</ele>
        <time>2013-06-15T14:18:20Z</time>
      </trkpt>
      <trkpt lat="45.06029" lon="5.3883">
        <ele>619.23</ele>
        <time>2013-06-15T14:18:34Z</time>
      </trkpt>
      <trkpt lat="45.06038" lon="5.38805">
        <ele>620.19</ele>
        <time>2013-06-15T14:18:50Z</time>
      </trkpt>
      <trkpt lat="45.06039" lon="5.38804">
        <ele>620.19</ele>
        <time>2013-06-15T14:18:51Z</time>
      </trkpt>
      <trkpt lat="45.06044" lon="5.38782">
        <ele>620.67</ele>
        <time>2013-06-15T14:19:06Z</time>
      </trkpt>
      <trkpt lat="45.06045" lon="5.38758">
        <ele>622.59</ele>
        <time>2013-06-15T14:19:20Z</time>
      </trkpt>
      <trkpt lat="45.06046" lon="5.38753">
        <ele>622.59</ele>
        <time>2013-06-15T14:19:23Z</time>
      </trkpt>
      <trkpt lat="45.06046" lon="5.38744">
        <ele>623.07</ele>
        <time>2013-06-15T14:19:29Z</time>
      </trkpt>
      <trkpt lat="45.06046" lon="5.38724">
        <ele>624.51</ele>
        <time>2013-06-15T14:19:43Z</time>
      </trkpt>
      <trkpt lat="45.06051" lon="5.38704">
        <ele>625.47</ele>
        <time>2013-06-15T14:19:56Z</time>
      </trkpt>
      <trkpt lat="45.06053" lon="5.38689">
        <ele>627.4</ele>
        <time>2013-06-15T14:20:06Z</time>
      </trkpt>
      <trkpt lat="45.06055" lon="5.38658">
        <ele>627.88</ele>
        <time>2013-06-15T14:20:25Z</time>
      </trkpt>
      <trkpt lat="45.06052" lon="5.38637">
        <ele>628.84</ele>
        <time>2013-06-15T14:20:38Z</time>
      </trkpt>
      <trkpt lat="45.0605" lon="5.38623">
        <ele>628.84</ele>
        <time>2013-06-15T14:20:47Z</time>
      </trkpt>
      <trkpt lat="45.06047" lon="5.386">
        <ele>629.8</ele>
        <time>2013-06-15T14:21:01Z</time>
      </trkpt>
      <trkpt lat="45.06047" lon="5.38578">
        <ele>630.76</ele>
        <time>2013-06-15T14:21:14Z</time>
      </trkpt>
      <trkpt lat="45.06045" lon="5.38568">
        <ele>631.24</ele>
        <time>2013-06-15T14:21:20Z</time>
      </trkpt>
      <trkpt lat="45.06042" lon="5.38561">
        <ele>630.76</ele>
        <time>2013-06-15T14:21:25Z</time>
      </trkpt>
      <trkpt lat="45.06034" lon="5.38534">
        <ele>631.24</ele>
        <time>2013-06-15T14:21:41Z</time>
      </trkpt>
      <trkpt lat="45.06027" lon="5.38516">
        <ele>632.2</ele>
        <time>2013-06-15T14:21:52Z</time>
      </trkpt>
      <trkpt lat="45.06014" lon="5.38489">
        <ele>631.24</ele>
        <time>2013-06-15T14:22:10Z</time>
      </trkpt>
      <trkpt lat="45.06005" lon="5.3847">
        <ele>631.72</ele>
        <time>2013-06-15T14:22:24Z</time>
      </trkpt>
      <trkpt lat="45.06003" lon="5.38467">
        <ele>630.28</ele>
        <time>2013-06-15T14:22:26Z</time>
      </trkpt>
      <trkpt lat="45.06002" lon="5.38457">
        <ele>629.8</ele>
        <time>2013-06-15T14:22:31Z</time>
      </trkpt>
      <trkpt lat="45.06" lon="5.38451">
        <ele>630.28</ele>
        <time>2013-06-15T14:22:35Z</time>
      </trkpt>
      <trkpt lat="45.05991" lon="5.38429">
        <ele>629.8</ele>
        <time>2013-06-15T14:22:50Z</time>
      </trkpt>
      <trkpt lat="45.05986" lon="5.38417">
        <ele>629.32</ele>
        <time>2013-06-15T14:22:58Z</time>
      </trkpt>
      <trkpt lat="45.05978" lon="5.38388">
        <ele>627.88</ele>
        <time>2013-06-15T14:23:16Z</time>
      </trkpt>
      <trkpt lat="45.05975" lon="5.38378">
        <ele>627.88</ele>
        <time>2013-06-15T14:23:30Z</time>
      </trkpt>
      <trkpt lat="45.05972" lon="5.38377">
        <ele>626.92</ele>
        <time>2013-06-15T14:23:50Z</time>
      </trkpt>
      <trkpt lat="45.05972" lon="5.38375">
        <ele>627.88</ele>
        <time>2013-06-15T14:23:52Z</time>
      </trkpt>
      <trkpt lat="45.0597" lon="5.38354">
        <ele>626.92</ele>
        <time>2013-06-15T14:24:04Z</time>
      </trkpt>
      <trkpt lat="45.0597" lon="5.38351">
        <ele>627.4</ele>
        <time>2013-06-15T14:24:06Z</time>
      </trkpt>
      <trkpt lat="45.0597" lon="5.38344">
        <ele>626.92</ele>
        <time>2013-06-15T14:24:16Z</time>
      </trkpt>
      <trkpt lat="45.05961" lon="5.38323">
        <ele>626.44</ele>
        <time>2013-06-15T14:24:30Z</time>
      </trkpt>
      <trkpt lat="45.0596" lon="5.38319">
        <ele>625.47</ele>
        <time>2013-06-15T14:24:32Z</time>
      </trkpt>
      <trkpt lat="45.05958" lon="5.38284">
        <ele>624.99</ele>
        <time>2013-06-15T14:24:49Z</time>
      </trkpt>
      <trkpt lat="45.05954" lon="5.38272">
        <ele>624.51</ele>
        <time>2013-06-15T14:24:56Z</time>
      </trkpt>
      <trkpt lat="45.05945" lon="5.38252">
        <ele>622.59</ele>
        <time>2013-06-15T14:25:10Z</time>
      </trkpt>
      <trkpt lat="45.05943" lon="5.38242">
        <ele>622.59</ele>
        <time>2013-06-15T14:25:15Z</time>
      </trkpt>
      <trkpt lat="45.05932" lon="5.38224">
        <ele>621.63</ele>
        <time>2013-06-15T14:25:27Z</time>
      </trkpt>
      <trkpt lat="45.05929" lon="5.382">
        <ele>621.63</ele>
        <time>2013-06-15T14:25:42Z</time>
      </trkpt>
      <trkpt lat="45.05922" lon="5.3818">
        <ele>620.67</ele>
        <time>2013-06-15T14:25:56Z</time>
      </trkpt>
      <trkpt lat="45.05919" lon="5.38161">
        <ele>620.19</ele>
        <time>2013-06-15T14:26:08Z</time>
      </trkpt>
      <trkpt lat="45.05913" lon="5.38134">
        <ele>618.75</ele>
        <time>2013-06-15T14:26:23Z</time>
      </trkpt>
      <trkpt lat="45.05915" lon="5.38108">
        <ele>618.75</ele>
        <time>2013-06-15T14:26:38Z</time>
      </trkpt>
      <trkpt lat="45.05916" lon="5.38083">
        <ele>616.82</ele>
        <time>2013-06-15T14:26:51Z</time>
      </trkpt>
      <trkpt lat="45.05912" lon="5.38058">
        <ele>615.86</ele>
        <time>2013-06-15T14:27:06Z</time>
      </trkpt>
      <trkpt lat="45.0591" lon="5.38051">
        <ele>614.9</ele>
        <time>2013-06-15T14:27:11Z</time>
      </trkpt>
      <trkpt lat="45.05904" lon="5.38027">
        <ele>613.46</ele>
        <time>2013-06-15T14:27:26Z</time>
      </trkpt>
      <trkpt lat="45.05905" lon="5.38023">
        <ele>613.46</ele>
        <time>2013-06-15T14:27:28Z</time>
      </trkpt>
      <trkpt lat="45.05906" lon="5.38018">
        <ele>612.98</ele>
        <time>2013-06-15T14:27:30Z</time>
      </trkpt>
      <trkpt lat="45.05909" lon="5.38011">
        <ele>612.98</ele>
        <time>2013-06-15T14:27:33Z</time>
      </trkpt>
      <trkpt lat="45.05926" lon="5.3799">
        <ele>612.02</ele>
        <time>2013-06-15T14:27:50Z</time>
      </trkpt>
      <trkpt lat="45.05943" lon="5.37976">
        <ele>612.5</ele>
        <time>2013-06-15T14:28:06Z</time>
      </trkpt>
      <trkpt lat="45.05965" lon="5.37963">
        <ele>612.98</ele>
        <time>2013-06-15T14:28:21Z</time>
      </trkpt>
      <trkpt lat="45.0598" lon="5.37951">
        <ele>611.54</ele>
        <time>2013-06-15T14:28:34Z</time>
      </trkpt>
      <trkpt lat="45.05994" lon="5.37932">
        <ele>610.57</ele>
        <time>2013-06-15T14:28:50Z</time>
      </trkpt>
      <trkpt lat="45.05998" lon="5.37923">
        <ele>609.61</ele>
        <time>2013-06-15T14:28:56Z</time>
      </trkpt>
      <trkpt lat="45.06004" lon="5.37895">
        <ele>609.13</ele>
        <time>2013-06-15T14:29:14Z</time>
      </trkpt>
      <trkpt lat="45.06" lon="5.37863">
        <ele>607.69</ele>
        <time>2013-06-15T14:29:32Z</time>
      </trkpt>
      <trkpt lat="45.06003" lon="5.37836">
        <ele>605.77</ele>
        <time>2013-06-15T14:29:47Z</time>
      </trkpt>
      <trkpt lat="45.06009" lon="5.37815">
        <ele>604.81</ele>
        <time>2013-06-15T14:30:00Z</time>
      </trkpt>
      <trkpt lat="45.06015" lon="5.37791">
        <ele>602.4</ele>
        <time>2013-06-15T14:30:14Z</time>
      </trkpt>
      <trkpt lat="45.06024" lon="5.37761">
        <ele>599.52</ele>
        <time>2013-06-15T14:30:32Z</time>
      </trkpt>
      <trkpt lat="45.06029" lon="5.37733">
        <ele>597.12</ele>
        <time>2013-06-15T14:30:49Z</time>
      </trkpt>
      <trkpt lat="45.06039" lon="5.37705">
        <ele>596.15</ele>
        <time>2013-06-15T14:31:06Z</time>
      </trkpt>
      <trkpt lat="45.0604" lon="5.3769">
        <ele>595.19</ele>
        <time>2013-06-15T14:31:14Z</time>
      </trkpt>
      <trkpt lat="45.06025" lon="5.37667">
        <ele>592.79</ele>
        <time>2013-06-15T14:31:32Z</time>
      </trkpt>
      <trkpt lat="45.06022" lon="5.37664">
        <ele>592.79</ele>
        <time>2013-06-15T14:31:35Z</time>
      </trkpt>
      <trkpt lat="45.06001" lon="5.37647">
        <ele>590.39</ele>
        <time>2013-06-15T14:31:53Z</time>
      </trkpt>
      <trkpt lat="45.05984" lon="5.37633">
        <ele>588.46</ele>
        <time>2013-06-15T14:32:10Z</time>
      </trkpt>
      <trkpt lat="45.05967" lon="5.37613">
        <ele>585.58</ele>
        <time>2013-06-15T14:32:27Z</time>
      </trkpt>
      <trkpt lat="45.05951" lon="5.37589">
        <ele>583.18</ele>
        <time>2013-06-15T14:32:44Z</time>
      </trkpt>
      <trkpt lat="45.05934" lon="5.37567">
        <ele>581.73</ele>
        <time>2013-06-15T14:33:01Z</time>
      </trkpt>
      <trkpt lat="45.05918" lon="5.37543">
        <ele>579.81</ele>
        <time>2013-06-15T14:33:19Z</time>
      </trkpt>
      <trkpt lat="45.05902" lon="5.37517">
        <ele>577.89</ele>
        <time>2013-06-15T14:33:38Z</time>
      </trkpt>
      <trkpt lat="45.05887" lon="5.37498">
        <ele>576.45</ele>
        <time>2013-06-15T14:33:53Z</time>
      </trkpt>
      <trkpt lat="45.0587" lon="5.37473">
        <ele>573.08</ele>
        <time>2013-06-15T14:34:12Z</time>
      </trkpt>
      <trkpt lat="45.0586" lon="5.3745">
        <ele>571.16</ele>
        <time>2013-06-15T14:34:28Z</time>
      </trkpt>
      <trkpt lat="45.05846" lon="5.37425">
        <ele>569.24</ele>
        <time>2013-06-15T14:34:46Z</time>
      </trkpt>
      <trkpt lat="45.05832" lon="5.37409">
        <ele>567.32</ele>
        <time>2013-06-15T14:35:00Z</time>
      </trkpt>
      <trkpt lat="45.0581" lon="5.37399">
        <ele>565.87</ele>
        <time>2013-06-15T14:35:18Z</time>
      </trkpt>
      <trkpt lat="45.05785" lon="5.37399">
        <ele>563.95</ele>
        <time>2013-06-15T14:35:38Z</time>
      </trkpt>
      <trkpt lat="45.05765" lon="5.37416">
        <ele>560.59</ele>
        <time>2013-06-15T14:35:56Z</time>
      </trkpt>
      <trkpt lat="45.05746" lon="5.37434">
        <ele>557.22</ele>
        <time>2013-06-15T14:36:14Z</time>
      </trkpt>
      <trkpt lat="45.05728" lon="5.3744">
        <ele>554.34</ele>
        <time>2013-06-15T14:36:29Z</time>
      </trkpt>
      <trkpt lat="45.05711" lon="5.37421">
        <ele>551.45</ele>
        <time>2013-06-15T14:36:46Z</time>
      </trkpt>
      <trkpt lat="45.05716" lon="5.37422">
        <ele>550.49</ele>
        <time>2013-06-15T14:36:59Z</time>
      </trkpt>
      <trkpt lat="45.0571" lon="5.37422">
        <ele>550.97</ele>
        <time>2013-06-15T14:37:16Z</time>
      </trkpt>
      <trkpt lat="45.05709" lon="5.37422">
        <ele>550.97</ele>
        <time>2013-06-15T14:37:17Z</time>
      </trkpt>
      <trkpt lat="45.05691" lon="5.37408">
        <ele>548.09</ele>
        <time>2013-06-15T14:37:33Z</time>
      </trkpt>
      <trkpt lat="45.05684" lon="5.37402">
        <ele>546.17</ele>
        <time>2013-06-15T14:37:47Z</time>
      </trkpt>
      <trkpt lat="45.05683" lon="5.37398">
        <ele>546.17</ele>
        <time>2013-06-15T14:38:01Z</time>
      </trkpt>
      <trkpt lat="45.05678" lon="5.3739">
        <ele>544.72</ele>
        <time>2013-06-15T14:38:07Z</time>
      </trkpt>
      <trkpt lat="45.05689" lon="5.37403">
        <ele>543.76</ele>
        <time>2013-06-15T14:38:21Z</time>
      </trkpt>
      <trkpt lat="45.05706" lon="5.37407">
        <ele>544.24</ele>
        <time>2013-06-15T14:38:33Z</time>
      </trkpt>
      <trkpt lat="45.05715" lon="5.37402">
        <ele>544.24</ele>
        <time>2013-06-15T14:38:39Z</time>
      </trkpt>
      <trkpt lat="45.05729" lon="5.37376">
        <ele>544.72</ele>
        <time>2013-06-15T14:38:57Z</time>
      </trkpt>
      <trkpt lat="45.0574" lon="5.37353">
        <ele>544.24</ele>
        <time>2013-06-15T14:39:13Z</time>
      </trkpt>
      <trkpt lat="45.05741" lon="5.3735">
        <ele>544.24</ele>
        <time>2013-06-15T14:39:22Z</time>
      </trkpt>
      <trkpt lat="45.05743" lon="5.37347">
        <ele>543.76</ele>
        <time>2013-06-15T14:39:25Z</time>
      </trkpt>
      <trkpt lat="45.05762" lon="5.37328">
        <ele>543.28</ele>
        <time>2013-06-15T14:39:44Z</time>
      </trkpt>
      <trkpt lat="45.05763" lon="5.3732">
        <ele>541.84</ele>
        <time>2013-06-15T14:39:55Z</time>
      </trkpt>
      <trkpt lat="45.05763" lon="5.3732">
        <ele>541.36</ele>
        <time>2013-06-15T14:40:18Z</time>
      </trkpt>
      <trkpt lat="45.05763" lon="5.37319">
        <ele>542.32</ele>
        <time>2013-06-15T14:40:36Z</time>
      </trkpt>
    </trkseg>
  </trk>
</gpx>